| Place | Name | Time | Raw score | Score |
|---|---|---|---|---|
| 1 | Puma D. Ace | 1:07.23 | 1,000 | 507 |
| 2 | -DarkLlama- | 1:07.74 | 900 | 457 |
| 2 | DasGerippe | 1:07.74 | 900 | 457 |
| 4 | slug ʕ●.●ʔ | 1:07.85 | 827 | 419 |
| 4 | Brionac | 1:07.85 | 827 | 419 |
| 6 | Predatory_Balloon | 1:08.15 | 777 | 394 |
| 7 | Waonder | 1:08.22 | 756 | 383 |
| 8 | cerberus❤ | 1:08.39 | 736 | 373 |
| 9 | Zany | 1:08.42 | 718 | 364 |
| 10 | Terrapin | 1:08.47 | 700 | 355 |
| 11 | JnvSor | 1:08.52 | 684 | 347 |
| 12 | Maxter Max | 1:08.53 | 669 | 339 |
| 13 | Freud | 1:08.60 | 654 | 332 |
| 14 | Kinix | 1:08.65 | 640 | 325 |
| 15 | Paparazzi | 1:08.75 | 626 | 318 |
| 16 | Jackie | 1:08.91 | 613 | 311 |
| 17 | fentanyl lover <3 | 1:08.98 | 600 | 304 |
| 18 | KnightBane | 1:09.06 | 588 | 298 |
| 19 | Tiyenti | 1:09.21 | 576 | 292 |
| 19 | XiQu3sT | 1:09.21 | 576 | 292 |
| 21 | Ferreus | 1:09.22 | 553 | 281 |
| 22 | Thermos | 1:09.23 | 542 | 275 |
| 23 | Homulilly (Witch) | 1:09.33 | 531 | 269 |
| 24 | RL | 1:09.46 | 521 | 264 |
| 25 | Bridge | 1:09.64 | 511 | 259 |
| 26 | Tribow | 1:09.83 | 500 | 254 |
| 27 | Haunted Pleb | 1:09.84 | 491 | 249 |
| 28 | Jay2a | 1:09.99 | 481 | 244 |
| 29 | Backgrounds' | 1:10.16 | 471 | 239 |
| 30 | Sayrix | 1:10.29 | 462 | 234 |
| 31 | Californ1a | 1:10.37 | 453 | 230 |
| 32 | Bile | 1:10.39 | 444 | 225 |
| 33 | i0nTempest | 1:10.61 | 435 | 221 |
| 34 | Kilika | 1:11.08 | 426 | 216 |
| 35 | Blu3 | 1:11.33 | 417 | 212 |
| 36 | Nerf | 1:11.39 | 409 | 207 |
| 37 | Dreigo | 1:11.64 | 400 | 203 |
| 38 | levinv270 | 1:11.87 | 392 | 199 |
| 39 | [RYC] Robin Yrvriff | 1:11.96 | 384 | 195 |
| 40 | Kenaz | 1:11.97 | 376 | 191 |
| 41 | Go Fish | 1:12.11 | 368 | 187 |
| 42 | CodedCrow | 1:12.16 | 360 | 183 |
| 43 | OMANEYE | 1:12.32 | 352 | 179 |
| 44 | Wourder | 1:12.49 | 345 | 175 |
| 45 | GTNeon | 1:12.78 | 337 | 171 |
| 46 | notguts | 1:12.80 | 330 | 167 |
| 47 | lift your tail for me | 1:12.84 | 322 | 163 |
| 48 | fooffie | 1:12.85 | 315 | 160 |
| 48 | IllKIllU | 1:12.85 | 315 | 160 |
| 50 | lefor0416 | 1:12.95 | 300 | 152 |
| 51 | badbfg | 1:13.06 | 293 | 149 |
| 52 | Luxora | 1:13.09 | 286 | 145 |
| 53 | Spennncer | 1:13.18 | 279 | 142 |
| 54 | 1:13.34 | 272 | 138 | |
| 55 | Azure Zakura | 1:13.35 | 266 | 135 |
| 56 | Buck | 1:13.47 | 259 | 131 |
| 56 | rotaryengine | 1:13.47 | 259 | 131 |
| 58 | Conbron ^-^ | 1:13.48 | 246 | 125 |
| 59 | Nico | 1:13.66 | 239 | 121 |
| 60 | DROCHEPOLK | 1:13.75 | 232 | 118 |
| 61 | Siyzerix | 1:13.79 | 226 | 115 |
| 62 | Sokkero | 1:13.83 | 219 | 111 |
| 63 | SlowScan | 1:13.91 | 213 | 108 |
| 64 | dreifachpunkt. | 1:13.99 | 207 | 105 |
| 65 | IIRMPII | 1:14.05 | 200 | 101 |
| 66 | Seinah | 1:14.10 | 194 | 98 |
| 67 | DPftw | 1:14.22 | 188 | 95 |
| 68 | h | 1:14.24 | 182 | 92 |
| 68 | Nick | 1:14.24 | 182 | 92 |
| 70 | Mossy Shush | 1:14.34 | 170 | 86 |
| 71 | jason | 1:14.36 | 164 | 83 |
| 72 | Slacks | 1:14.49 | 158 | 80 |
| 73 | Plasmawario | 1:14.53 | 152 | 77 |
| 73 | Swash | 1:14.53 | 152 | 77 |
| 75 | Edragon13 | 1:14.54 | 140 | 71 |
| 76 | DefenderOfHyrule | 1:14.74 | 134 | 68 |
| 77 | ENOLA | 1:14.79 | 129 | 65 |
| 78 | Sidewinder Fang | 1:14.81 | 123 | 62 |
| 78 | mrahc | 1:14.81 | 123 | 62 |
| 80 | Jaeden7060 | 1:14.87 | 112 | 57 |
| 81 | Rokalus | 1:14.89 | 106 | 54 |
| 82 | aerie | 1:14.91 | 100 | 51 |
| 83 | ViryGo19 | 1:14.92 | 95 | 48 |
| 84 | pcl219 | 1:15.09 | 89 | 45 |
| 85 | khrisround2 | 1:15.11 | 84 | 43 |
| 86 | One Ghosty Boi | 1:15.13 | 79 | 40 |
| 87 | MasterJedi2014 | 1:15.19 | 73 | 37 |
| 88 | Blahaj Blast | 1:15.25 | 68 | 34 |
| 89 | Epsilon_Knight | 1:15.30 | 62 | 31 |
| 90 | Lin | 1:15.37 | 57 | 29 |
| 91 | MCrekna1 | 1:15.44 | 52 | 26 |
| 92 | Inbread Sandwich | 1:15.47 | 47 | 24 |
| 93 | BBQ-Bacon-Pizza | 1:15.55 | 41 | 21 |
| 94 | Iris | 1:15.60 | 36 | 18 |
| 95 | Kramatus | 1:15.63 | 31 | 16 |
| 96 | Diabetis4life | 1:15.65 | 26 | 13 |
| 97 | TheIllusiveGreg | 1:15.71 | 21 | 11 |
| 98 | Lampshaede | 1:15.74 | 16 | 8 |
| 99 | < blank > | 1:15.75 | 11 | 6 |
| 99 | Sartha | 1:15.75 | 11 | 6 |
| 101 | PathToV1ctory | 1:15.97 | 0 | 0 |
| 101 | baevery | 1:15.97 | 0 | 0 |
| 103 | burger | 1:16.00 | 0 | 0 |
| 104 | A.K.S. | 1:16.07 | 0 | 0 |
| 105 | [deleted] | 1:16.09 | 0 | 0 |
| 106 | supersushicat1 | 1:16.12 | 0 | 0 |
| 107 | Jacsn | 1:16.15 | 0 | 0 |
| 108 | TurboPasta | 1:16.19 | 0 | 0 |
| 109 | PinesOfChaos | 1:16.24 | 0 | 0 |
| 110 | DisQorded | 1:16.38 | 0 | 0 |
| 111 | supersmily5 | 1:16.43 | 0 | 0 |
| 112 | 4onen | 1:16.54 | 0 | 0 |
| 113 | Booty Eating Bandit | 1:16.61 | 0 | 0 |
| 114 | Ohnoitsmangofett | 1:16.66 | 0 | 0 |
| 115 | Revenant Crow | 1:16.85 | 0 | 0 |
| 116 | skuzzzy | 1:16.86 | 0 | 0 |
| 116 | Chipboard | 1:16.86 | 0 | 0 |
| 118 | xanthousphoenix | 1:16.92 | 0 | 0 |
| 119 | Man | 1:16.94 | 0 | 0 |
| 120 | Shaka | 1:17.04 | 0 | 0 |
| 121 | Cyberpunk Ice Noodle | 1:17.22 | 0 | 0 |
| 122 | Qaaz | 1:17.26 | 0 | 0 |
| 123 | NoBody | 1:17.44 | 0 | 0 |
| 124 | Ashton_bro | 1:17.60 | 0 | 0 |
| 125 | NekoNachi | 1:17.61 | 0 | 0 |
| 126 | 猫かわいい | 1:17.67 | 0 | 0 |
| 127 | ReallyDumbFox | 1:17.80 | 0 | 0 |
| 128 | M0N5T3R_null | 1:17.81 | 0 | 0 |
| 129 | Dimitri | 1:18.06 | 0 | 0 |
| 130 | Domino | 1:18.08 | 0 | 0 |
| 131 | Iron_Angmar | 1:18.13 | 0 | 0 |
| 132 | Restarian | 1:18.31 | 0 | 0 |
| 133 | Winter's Crescendo | 1:18.37 | 0 | 0 |
| 134 | Costthebaust | 1:18.54 | 0 | 0 |
| 135 | j3ns2706 | 1:18.57 | 0 | 0 |
| 136 | jof | 1:18.67 | 0 | 0 |
| 137 | EleventyB | 1:18.72 | 0 | 0 |
| 138 | sour | 1:18.77 | 0 | 0 |
| 139 | FluffyTheZombii | 1:18.86 | 0 | 0 |
| 140 | BrandonK-TN | 1:18.89 | 0 | 0 |
| 141 | Ae1oURed | 1:19.07 | 0 | 0 |
| 142 | Chase | 1:19.23 | 0 | 0 |
| 143 | RaiderZulu | 1:19.36 | 0 | 0 |
| 144 | Twitch | 1:19.43 | 0 | 0 |
| 145 | Hugo Ball | 1:19.47 | 0 | 0 |
| 146 | Bum Farto | 1:19.60 | 0 | 0 |
| 147 | pigpenguin | 1:19.61 | 0 | 0 |
| 148 | Jarminx | 1:19.63 | 0 | 0 |
| 148 | Overlord | 1:19.63 | 0 | 0 |
| 150 | Jak | 1:19.70 | 0 | 0 |
| 151 | S A L V A T I O N | 1:19.90 | 0 | 0 |
| 152 | gusforester | 1:19.91 | 0 | 0 |
| 153 | PineFreshGuy | 1:19.94 | 0 | 0 |
| 153 | Rhynae | 1:19.94 | 0 | 0 |
| 155 | Loopsty | 1:20.01 | 0 | 0 |
| 156 | FluffWuff <3 | 1:20.09 | 0 | 0 |
| 157 | Lady Vira | 1:20.10 | 0 | 0 |
| 157 | abseth | 1:20.10 | 0 | 0 |
| 159 | Ennik | 1:20.25 | 0 | 0 |
| 160 | NeonChaosAwoo | 1:20.42 | 0 | 0 |
| 161 | HyperNova | 1:20.43 | 0 | 0 |
| 162 | Iv0x | 1:20.45 | 0 | 0 |
| 163 | lungfish | 1:20.60 | 0 | 0 |
| 164 | Hazylina | 1:20.65 | 0 | 0 |
| 165 | Tselkie | 1:20.68 | 0 | 0 |
| 166 | Sogram | 1:20.76 | 0 | 0 |
| 167 | Eagl3 | 1:20.93 | 0 | 0 |
| 168 | Queritz | 1:21.08 | 0 | 0 |
| 169 | RenZõÓ | 1:21.10 | 0 | 0 |
| 170 | Onionlloyd | 1:21.20 | 0 | 0 |
| 171 | Arcvale | 1:21.30 | 0 | 0 |
| 172 | OnePUnchMAN | 1:21.33 | 0 | 0 |
| 173 | Diego | 1:21.52 | 0 | 0 |
| 174 | TS_Mind_Swept | 1:21.58 | 0 | 0 |
| 175 | Apollotheosis | 1:21.61 | 0 | 0 |
| 176 | Pristine | 1:21.64 | 0 | 0 |
| 177 | ComputerDruid | 1:21.77 | 0 | 0 |
| 178 | WorkingChickenMH | 1:21.80 | 0 | 0 |
| 179 | Mar_Veloz | 1:21.93 | 0 | 0 |
| 180 | Jam0344 | 1:21.98 | 0 | 0 |
| 181 | Lord Adorable | 1:22.20 | 0 | 0 |
| 182 | Achiro | 1:22.31 | 0 | 0 |
| 183 | A Moldy Orange | 1:22.44 | 0 | 0 |
| 184 | RobotFK | 1:22.49 | 0 | 0 |
| 185 | oCL. Kiatight | 1:22.50 | 0 | 0 |
| 186 | Intellibastard | 1:22.57 | 0 | 0 |
| 187 | DMRakdos | 1:22.58 | 0 | 0 |
| 188 | Eshael | 1:22.69 | 0 | 0 |
| 189 | Brando Multin | 1:22.71 | 0 | 0 |
| 190 | Teshi | 1:22.82 | 0 | 0 |
| 191 | kivito | 1:22.86 | 0 | 0 |
| 192 | Paladin | 1:22.97 | 0 | 0 |
| 193 | Cyxxus | 1:23.18 | 0 | 0 |
| 194 | icewindow | 1:23.34 | 0 | 0 |
| 195 | TheWanderer05 | 1:23.48 | 0 | 0 |
| 196 | TTV.NoxDecious3 | 1:23.66 | 0 | 0 |
| 197 | Koichi Dono | 1:23.71 | 0 | 0 |
| 198 | croc | 1:24.00 | 0 | 0 |
| 199 | TheEPROM9 LaTeX | 1:24.09 | 0 | 0 |
| 200 | Sugoi-desu (⊙‿⊙✿) | 1:24.11 | 0 | 0 |
| 201 | UnlimitedDucks | 1:24.17 | 0 | 0 |
| 202 | Billy Bat | 1:24.20 | 0 | 0 |
| 203 | Klaus Zeitraum | Creation Magic | 1:25.27 | 0 | 0 |
| 204 | James "Papa Het" Hetfield | 1:25.31 | 0 | 0 |
| 205 | Spotfire | 1:25.54 | 0 | 0 |
| 206 | Grat | 1:25.57 | 0 | 0 |
| 207 | Uranos | 1:25.75 | 0 | 0 |
| 208 | Triumphant Trump (Noties Muted) | 1:25.83 | 0 | 0 |
| 209 | Rusty Shackleford | 1:26.77 | 0 | 0 |
| 210 | keksilu | 1:26.88 | 0 | 0 |
| 211 | Pylinaer | 1:26.90 | 0 | 0 |
| 212 | Qioury | 1:26.97 | 0 | 0 |
| 213 | ahtnos | 1:27.21 | 0 | 0 |
| 214 | Kibōchen | 1:27.26 | 0 | 0 |
| 215 | Cozypunk | 1:27.94 | 0 | 0 |
| 216 | BlacKat | 1:28.10 | 0 | 0 |
| 217 | JayBoneJay | 1:28.27 | 0 | 0 |
| 218 | tecnaeve | 1:28.28 | 0 | 0 |
| 219 | CipherRae | 1:28.34 | 0 | 0 |
| 220 | Camel | 1:28.68 | 0 | 0 |
| 220 | Frozen | 1:28.68 | 0 | 0 |
| 220 | Hotride | 1:28.68 | 0 | 0 |
| 223 | Ntorean | 1:28.78 | 0 | 0 |
| 224 | Awesomedan | 1:28.97 | 0 | 0 |
| 225 | Benji | 1:29.24 | 0 | 0 |
| 226 | Ruslan145 | 1:29.42 | 0 | 0 |
| 227 | Redx | 1:29.69 | 0 | 0 |
| 227 | concil | 1:29.69 | 0 | 0 |
| 229 | NyctoGT | 1:29.74 | 0 | 0 |
| 230 | Citrus | 1:29.76 | 0 | 0 |
| 231 | Cheddar | 1:30.02 | 0 | 0 |
| 232 | SHAaD_Sicod | 1:30.45 | 0 | 0 |
| 233 | Roboraser | 1:31.09 | 0 | 0 |
| 234 | Orion | 1:31.17 | 0 | 0 |
| 235 | BlueStalfos | 1:31.29 | 0 | 0 |
| 236 | Corecii | 1:31.31 | 0 | 0 |
| 237 | Nixill | 1:31.34 | 0 | 0 |
| 238 | Dutesao | 1:31.38 | 0 | 0 |
| 239 | Vyz | 1:31.40 | 0 | 0 |
| 240 | Chronochax | 1:31.56 | 0 | 0 |
| 241 | Pompous Whale | 1:31.62 | 0 | 0 |
| 242 | Uganda Knuckles | 1:31.66 | 0 | 0 |
| 243 | Papa M O I S T | 1:31.71 | 0 | 0 |
| 244 | Spaceburger | 1:31.72 | 0 | 0 |
| 245 | #YeaCreamOnIt | 1:31.73 | 0 | 0 |
| 246 | aro3o6 | 1:31.74 | 0 | 0 |
| 247 | ^1WᴀʀᴘWɪʀᴇ | 1:31.79 | 0 | 0 |
| 247 | vis | 1:31.79 | 0 | 0 |
| 249 | Hunter | 1:31.82 | 0 | 0 |
| 250 | one cute fox girl | 1:31.87 | 0 | 0 |
| 251 | Jigglypuff | 1:31.88 | 0 | 0 |
| 252 | ForlornStag (controller) | 1:31.89 | 0 | 0 |
| 252 | FrittenFriseurLPs | 1:31.89 | 0 | 0 |
| 254 | MyurrDurr | 1:31.99 | 0 | 0 |
| 255 | Neoblastz | 1:32.00 | 0 | 0 |
| 256 | G9 | 1:32.07 | 0 | 0 |
| 256 | Rhetorical Question | 1:32.07 | 0 | 0 |
| 258 | Lotsarice | 1:32.12 | 0 | 0 |
| 258 | Meda | 1:32.12 | 0 | 0 |
| 260 | Minecraft-pro | 1:32.20 | 0 | 0 |
| 261 | Frontline Mortician | 1:32.22 | 0 | 0 |
| 262 | FiaLilium | 1:32.23 | 0 | 0 |
| 262 | Lutermama | 1:32.23 | 0 | 0 |
| 264 | NuggetTheBigBoi | 1:32.24 | 0 | 0 |
| 265 | nord_nikon | 1:32.29 | 0 | 0 |
| 266 | IanRosk | 1:32.33 | 0 | 0 |
| 267 | dannyburke03 | 1:32.34 | 0 | 0 |
| 268 | Solely | 1:32.35 | 0 | 0 |
| 269 | Snakefalls | 1:32.37 | 0 | 0 |
| 270 | Berndbob | 1:32.42 | 0 | 0 |
| 271 | THE FINAL LOSER | 1:32.43 | 0 | 0 |
| 271 | BingJ | 1:32.43 | 0 | 0 |
| 273 | MERC | 1:32.45 | 0 | 0 |
| 274 | ImNotFine | 1:32.62 | 0 | 0 |
| 275 | IzPaladin | 1:32.64 | 0 | 0 |
| 276 | Lucky Lagomorph | 1:32.66 | 0 | 0 |
| 277 | Elan | 1:32.69 | 0 | 0 |
| 278 | Dante | 1:32.74 | 0 | 0 |
| 279 | LP_NinLory | 1:32.84 | 0 | 0 |
| 280 | maddison135 | 1:32.86 | 0 | 0 |
| 281 | GreenStache | 1:32.87 | 0 | 0 |
| 281 | Megacrafter127 | 1:32.87 | 0 | 0 |
| 283 | [NBD] PizzaHutDoxen | 1:32.90 | 0 | 0 |
| 284 | BertFe | 1:32.98 | 0 | 0 |
| 285 | StargazerBird | 1:33.00 | 0 | 0 |
| 286 | Xheptor | 1:33.04 | 0 | 0 |
| 287 | marius_redandblue | 1:33.12 | 0 | 0 |
| 288 | minionmom82 | 1:33.28 | 0 | 0 |
| 289 | Old Bastard | 1:33.41 | 0 | 0 |
| 290 | CampingCarl | 1:33.42 | 0 | 0 |
| 291 | Fiefio | 1:33.46 | 0 | 0 |
| 292 | NoraNoShika | 1:33.47 | 0 | 0 |
| 293 | Glory | 1:33.55 | 0 | 0 |
| 294 | Mandibles | 1:33.58 | 0 | 0 |
| 295 | Siedler | 1:33.64 | 0 | 0 |
| 296 | RBBakie | 1:33.71 | 0 | 0 |
| 297 | Dany | 1:33.86 | 0 | 0 |
| 298 | Thorax | 1:33.87 | 0 | 0 |
| 299 | akyra00 | 1:33.97 | 0 | 0 |
| 299 | Olympian_mystery | 1:33.97 | 0 | 0 |
| 301 | SynfulShapeshifter | 1:34.13 | 0 | 0 |
| 302 | BillyWitchDoctor | 1:34.18 | 0 | 0 |
| 302 | zombieassaultman | 1:34.18 | 0 | 0 |
| 302 | Bezzernator | 1:34.18 | 0 | 0 |
| 305 | DieselFace | 1:34.27 | 0 | 0 |
| 306 | Reus | 1:34.36 | 0 | 0 |
| 307 | Caradog | 1:34.46 | 0 | 0 |
| 308 | DevilBullet | 1:34.51 | 0 | 0 |
| 309 | Nick Elements | 1:34.53 | 0 | 0 |
| 310 | VI_fizz | 1:34.79 | 0 | 0 |
| 311 | XLgeneral | 1:34.89 | 0 | 0 |
| 312 | PRAR | 1:34.92 | 0 | 0 |
| 313 | Defiance_LLK | 1:35.00 | 0 | 0 |
| 313 | Alopex | 1:35.00 | 0 | 0 |
| 315 | CrowFeather | 1:35.03 | 0 | 0 |
| 316 | FREEZING COLD | 1:35.07 | 0 | 0 |
| 317 | Moenado | 1:35.33 | 0 | 0 |
| 318 | Wollkopf | 1:35.35 | 0 | 0 |
| 319 | The Unusual Suspect | 1:35.47 | 0 | 0 |
| 320 | futpib | 1:35.48 | 0 | 0 |
| 321 | Norz-Öril'Kern | 1:35.51 | 0 | 0 |
| 322 | Voltaic | 1:35.69 | 0 | 0 |
| 323 | Spark | 1:35.75 | 0 | 0 |
| 324 | Embylles | 1:35.77 | 0 | 0 |
| 325 | kraspu | 1:35.79 | 0 | 0 |
| 326 | delfiler | 1:35.88 | 0 | 0 |
| 326 | Xandrak | 1:35.88 | 0 | 0 |
| 328 | Plasmaraider | 1:35.90 | 0 | 0 |
| 329 | Enzyme Machine | 1:36.06 | 0 | 0 |
| 330 | C4tch | 1:36.17 | 0 | 0 |
| 331 | CeruleanAzura | 1:36.19 | 0 | 0 |
| 332 | Sonickaii | 1:36.38 | 0 | 0 |
| 333 | Piiec | 1:36.40 | 0 | 0 |
| 334 | Wolf | 1:36.45 | 0 | 0 |
| 335 | Neneko | 1:36.46 | 0 | 0 |
| 336 | blue | 1:36.66 | 0 | 0 |
| 337 | Warchief Chieftain | 1:36.72 | 0 | 0 |
| 338 | JONTY | 1:36.74 | 0 | 0 |
| 339 | A Live Studio Audience | 1:36.75 | 0 | 0 |
| 340 | Foxx | 1:36.81 | 0 | 0 |
| 341 | TheEvilMidnightBomber | 1:36.90 | 0 | 0 |
| 342 | Onneyon | 1:37.00 | 0 | 0 |
| 343 | Echor | 1:37.16 | 0 | 0 |
| 344 | Nuigurumi | 1:37.24 | 0 | 0 |
| 345 | Krash | 1:37.25 | 0 | 0 |
| 346 | Jesster | 1:37.41 | 0 | 0 |
| 347 | Lawrence | 1:37.43 | 0 | 0 |
| 347 | Johnnino | 1:37.43 | 0 | 0 |
| 349 | Other XIX | 1:37.45 | 0 | 0 |
| 350 | 321longshot | 1:37.54 | 0 | 0 |
| 350 | SlenderBonnie | 1:37.54 | 0 | 0 |
| 352 | PlatinumAstra | 1:37.80 | 0 | 0 |
| 353 | Wolfy Neah | 1:37.81 | 0 | 0 |
| 354 | Kecha | 1:38.01 | 0 | 0 |
| 355 | Verity | 1:38.05 | 0 | 0 |
| 356 | Charlotte | 1:38.10 | 0 | 0 |
| 357 | ^jnz | 1:38.36 | 0 | 0 |
| 358 | baakstaff | 1:38.44 | 0 | 0 |
| 359 | Pink Naruto | 1:38.64 | 0 | 0 |
| 360 | spires | 1:38.80 | 0 | 0 |
| 361 | Hashtag-Underscore | 1:38.87 | 0 | 0 |
| 362 | GR | 1:38.88 | 0 | 0 |
| 363 | CoJo12 | 1:38.95 | 0 | 0 |
| 364 | Silverstop | 1:39.07 | 0 | 0 |
| 365 | PuppySky | 1:39.18 | 0 | 0 |
| 365 | The Blue Fox | 1:39.18 | 0 | 0 |
| 367 | Artifact | 1:39.29 | 0 | 0 |
| 368 | Chaos Titan | 1:39.40 | 0 | 0 |
| 369 | Shjohn | 1:39.41 | 0 | 0 |
| 370 | Something really stupid | 1:39.43 | 0 | 0 |
| 371 | tipek360 | 1:39.47 | 0 | 0 |
| 372 | Günther Fox | 1:39.87 | 0 | 0 |
| 373 | Omega_Raptors | 1:40.05 | 0 | 0 |
| 374 | NoMoreMind | 1:40.43 | 0 | 0 |
| 375 | BillyKings | 1:40.82 | 0 | 0 |
| 376 | Rewnie | 1:40.83 | 0 | 0 |
| 377 | Shirayuki | 1:40.84 | 0 | 0 |
| 378 | AFRQDED | 1:40.87 | 0 | 0 |
| 379 | [REDACTED] | 1:40.94 | 0 | 0 |
| 380 | MAMUMUSUME | 1:41.11 | 0 | 0 |
| 381 | Neko14789 | 1:41.14 | 0 | 0 |
| 382 | btyrellb125 | 1:41.15 | 0 | 0 |
| 383 | Dislin | 1:41.24 | 0 | 0 |
| 384 | Jappen | 1:41.31 | 0 | 0 |
| 384 | Jonny | 1:41.31 | 0 | 0 |
| 386 | Sgt. Giclette | 1:41.46 | 0 | 0 |
| 387 | Bean Sidhe | 1:41.48 | 0 | 0 |
| 388 | Davonavik | 1:41.53 | 0 | 0 |
| 389 | Keflon | 1:41.56 | 0 | 0 |
| 390 | [deleted] | 1:41.65 | 0 | 0 |
| 391 | Razgriez | 1:41.75 | 0 | 0 |
| 392 | Splatsune Miku | 1:41.89 | 0 | 0 |
| 393 | Zebra | 1:41.92 | 0 | 0 |
| 394 | Little Tim Tim | 1:42.37 | 0 | 0 |
| 395 | LissomChunk | 1:42.49 | 0 | 0 |
| 396 | s_s_d_d_33 | 1:42.52 | 0 | 0 |
| 397 | Haven | 1:42.58 | 0 | 0 |
| 398 | ペレリン | 1:42.81 | 0 | 0 |
| 399 | Gaste ^w^ | 1:42.89 | 0 | 0 |
| 400 | Arphey01 | 1:43.01 | 0 | 0 |
| 401 | Mr. Beefy | 1:43.18 | 0 | 0 |
| 402 | That One Panda | 1:43.27 | 0 | 0 |
| 403 | Ramalis | 1:43.31 | 0 | 0 |
| 404 | Skrigar | 1:43.37 | 0 | 0 |
| 405 | thom6777 | 1:43.70 | 0 | 0 |
| 406 | Lunazoin | 1:43.83 | 0 | 0 |
| 407 | BlurElGamer | 1:43.94 | 0 | 0 |
| 408 | PoisonGuy7 | 1:43.96 | 0 | 0 |
| 409 | nrpsSword0 | 1:43.98 | 0 | 0 |
| 410 | Ashen Marx | 1:44.15 | 0 | 0 |
| 411 | SecondOverloadx | 1:44.23 | 0 | 0 |
| 412 | JokersBullet12 | 1:44.27 | 0 | 0 |
| 413 | Kivvi | 1:44.33 | 0 | 0 |
| 414 | Vini | 1:44.35 | 0 | 0 |
| 415 | Bone Lee | 1:44.37 | 0 | 0 |
| 416 | Osbob | 1:44.58 | 0 | 0 |
| 417 | Junior | 1:44.68 | 0 | 0 |
| 418 | yuri gagarin's creamy interior | 1:44.75 | 0 | 0 |
| 419 | trigger_segfault | 1:44.80 | 0 | 0 |
| 420 | Shady Inktail | 1:44.83 | 0 | 0 |
| 421 | HJQLF | 1:44.84 | 0 | 0 |
| 422 | Weegee | 1:45.12 | 0 | 0 |
| 423 | Bilbobangboom | 1:45.22 | 0 | 0 |
| 424 | 76561198836144536 | 1:45.28 | 0 | 0 |
| 425 | furry vape swag messiah | 1:45.45 | 0 | 0 |
| 426 | Dosilox | 1:45.52 | 0 | 0 |
| 427 | paskautov | 1:45.54 | 0 | 0 |
| 428 | McLovin | 1:45.55 | 0 | 0 |
| 429 | Shyylock | 1:45.64 | 0 | 0 |
| 430 | Cptpotatoface | 1:45.66 | 0 | 0 |
| 431 | Mr. Doggy | 1:45.68 | 0 | 0 |
| 432 | GLUBBA | 1:45.74 | 0 | 0 |
| 433 | BulletRain23 | 1:45.80 | 0 | 0 |
| 434 | RetaliationGuy YT | 1:45.81 | 0 | 0 |
| 434 | Boomer McGeezer | 1:45.81 | 0 | 0 |
| 436 | FyreWall | 1:45.86 | 0 | 0 |
| 437 | Jasper | 1:45.89 | 0 | 0 |
| 437 | Blexyde | 1:45.89 | 0 | 0 |
| 439 | Crysest | 1:45.91 | 0 | 0 |
| 439 | Greeny^ | 1:45.91 | 0 | 0 |
| 441 | Гвоздь | 1:45.93 | 0 | 0 |
| 442 | red | 1:45.98 | 0 | 0 |
| 443 | Crado | 1:46.00 | 0 | 0 |
| 444 | WiteNite | 1:46.01 | 0 | 0 |
| 445 | BoreasTheIceGod | 1:46.02 | 0 | 0 |
| 446 | Battle Banana Chris Handsom | 1:46.04 | 0 | 0 |
| 447 | Triton | 1:46.06 | 0 | 0 |
| 447 | Tute710 | 1:46.06 | 0 | 0 |
| 449 | Fleet Foxes Enjoyer | 1:46.08 | 0 | 0 |
| 450 | SirDan | 1:46.09 | 0 | 0 |
| 451 | Azure | 1:46.10 | 0 | 0 |
| 451 | R. | 1:46.10 | 0 | 0 |
| 451 | Lazarus | 1:46.10 | 0 | 0 |
| 454 | Irradiated Irridium | 1:46.12 | 0 | 0 |
| 454 | Be Doky | 1:46.12 | 0 | 0 |
| 454 | Sky_ | 1:46.12 | 0 | 0 |
| 457 | SSF | 1:46.14 | 0 | 0 |
| 457 | The Talking Onion | 1:46.14 | 0 | 0 |
| 459 | M500 | 1:46.17 | 0 | 0 |
| 460 | Tagg | 1:46.18 | 0 | 0 |
| 461 | menkaru | 1:46.19 | 0 | 0 |
| 461 | JDthe3rd | 1:46.19 | 0 | 0 |
| 461 | Wulg | 1:46.19 | 0 | 0 |
| 464 | Joti | 1:46.22 | 0 | 0 |
| 464 | energize | 1:46.22 | 0 | 0 |
| 466 | SX64 | 1:46.23 | 0 | 0 |
| 467 | Suspect | 1:46.24 | 0 | 0 |
| 468 | Dinnis | 1:46.25 | 0 | 0 |
| 468 | samson13 | 1:46.25 | 0 | 0 |
| 470 | Faygo D. Bullchit | 1:46.26 | 0 | 0 |
| 470 | Kotz | 1:46.26 | 0 | 0 |
| 470 | молдовский демон | 1:46.26 | 0 | 0 |
| 470 | Opliz jejetriton | 1:46.26 | 0 | 0 |
| 474 | Rainbow | 1:46.27 | 0 | 0 |
| 475 | MP X10L | 1:46.29 | 0 | 0 |
| 475 | Friend Besto | 1:46.29 | 0 | 0 |
| 475 | Sensokaku | 1:46.29 | 0 | 0 |
| 478 | Holdoye | 1:46.30 | 0 | 0 |
| 479 | The Brim Defender | 1:46.33 | 0 | 0 |
| 479 | Zephyrous | 1:46.33 | 0 | 0 |
| 481 | Viking_king | 1:46.34 | 0 | 0 |
| 482 | 1MBStudios | 1:46.35 | 0 | 0 |
| 482 | Undependability | 1:46.35 | 0 | 0 |
| 484 | Fleabag | 1:46.37 | 0 | 0 |
| 484 | Anrix | 1:46.37 | 0 | 0 |
| 486 | Karakanov | 1:46.38 | 0 | 0 |
| 486 | Whitender | 1:46.38 | 0 | 0 |
| 486 | xuzziah.carr27 | 1:46.38 | 0 | 0 |
| 489 | Inzarin | 1:46.39 | 0 | 0 |
| 489 | YouveGotFail | 1:46.39 | 0 | 0 |
| 491 | Gloþ | 1:46.41 | 0 | 0 |
| 492 | E-Pain | 1:46.45 | 0 | 0 |
| 492 | Dante | 1:46.45 | 0 | 0 |
| 492 | Bert | 1:46.45 | 0 | 0 |
| 495 | cptnbean | 1:46.46 | 0 | 0 |
| 495 | Lilith Torres | 1:46.46 | 0 | 0 |
| 497 | Kaliphear | 1:46.47 | 0 | 0 |
| 498 | Luminous | 1:46.48 | 0 | 0 |
| 498 | rbrules | 1:46.48 | 0 | 0 |
| 500 | cfr34k | 1:46.50 | 0 | 0 |
| 500 | McFolt | 1:46.50 | 0 | 0 |
| 500 | TP-N.co PC-118 B-10001110101 | 1:46.50 | 0 | 0 |
| 503 | The Male Gamer | 1:46.51 | 0 | 0 |
| 504 | AlieN | 1:46.52 | 0 | 0 |
| 504 | Ozymandias | 1:46.52 | 0 | 0 |
| 506 | Sperzieb00n | 1:46.54 | 0 | 0 |
| 507 | Spectrate | 1:46.55 | 0 | 0 |
| 507 | Vabenice | 1:46.55 | 0 | 0 |
| 507 | Breezy™ | 1:46.55 | 0 | 0 |
| 510 | NoGround | 1:46.56 | 0 | 0 |
| 510 | Leterren | 1:46.56 | 0 | 0 |
| 510 | Bog Pogula | 1:46.56 | 0 | 0 |
| 510 | Fussells | 1:46.56 | 0 | 0 |
| 510 | EzraW118 | 1:46.56 | 0 | 0 |
| 515 | Linis | 1:46.58 | 0 | 0 |
| 516 | Laugh Track | 1:46.59 | 0 | 0 |
| 516 | Bios | 1:46.59 | 0 | 0 |
| 518 | Loc-Nar | 1:46.60 | 0 | 0 |
| 518 | IlLumierelI | 1:46.60 | 0 | 0 |
| 520 | Sunnydan | 1:46.62 | 0 | 0 |
| 521 | Manatee | 1:46.64 | 0 | 0 |
| 521 | theDeltaNiner | 1:46.64 | 0 | 0 |
| 521 | Underliinez | 1:46.64 | 0 | 0 |
| 524 | p1xl | 1:46.65 | 0 | 0 |
| 525 | Jack5 | 1:46.67 | 0 | 0 |
| 525 | PandaMommy | 1:46.67 | 0 | 0 |
| 525 | ATOM | 1:46.67 | 0 | 0 |
| 528 | Jovi | 1:46.68 | 0 | 0 |
| 529 | Silver~ | 1:46.69 | 0 | 0 |
| 530 | ThatFatPat | 1:46.70 | 0 | 0 |
| 530 | Wolf Black | 1:46.70 | 0 | 0 |
| 532 | e⁻ | 1:46.71 | 0 | 0 |
| 532 | B_G | 1:46.71 | 0 | 0 |
| 534 | Jutastre | 1:46.73 | 0 | 0 |
| 535 | firetux [GER] | 1:46.74 | 0 | 0 |
| 535 | [BIT]SnepSpecialist | 1:46.74 | 0 | 0 |
| 537 | fischpferd | 1:46.75 | 0 | 0 |
| 537 | Wet Muffin | 1:46.75 | 0 | 0 |
| 539 | bloodorangesunrise | 1:46.77 | 0 | 0 |
| 540 | Andy95 | 1:46.78 | 0 | 0 |
| 540 | Topaz95 | 1:46.78 | 0 | 0 |
| 540 | ★ ADDON ★ | 1:46.78 | 0 | 0 |
| 543 | ThatOneFastGuy | 1:46.79 | 0 | 0 |
| 543 | listlessvoid | 1:46.79 | 0 | 0 |
| 543 | Astro | 1:46.79 | 0 | 0 |
| 546 | The Blyatman | 1:46.80 | 0 | 0 |
| 547 | Kamikaze901 | 1:46.81 | 0 | 0 |
| 548 | Prof. Pinwheel | 1:46.82 | 0 | 0 |
| 548 | NFSLYY | 1:46.82 | 0 | 0 |
| 550 | 𝗨𝗻𝗰𝗹𝗘𝗰𝗮𝗸𝗲 | 1:46.83 | 0 | 0 |
| 550 | Agent-Cryspy | 1:46.83 | 0 | 0 |
| 550 | Azur-Lane | 1:46.83 | 0 | 0 |
| 553 | Latapi | 1:46.84 | 0 | 0 |
| 553 | Thomas The Dank | 1:46.84 | 0 | 0 |
| 553 | posture check | 1:46.84 | 0 | 0 |
| 553 | Fumeijoe | 1:46.84 | 0 | 0 |
| 553 | blue42u | 1:46.84 | 0 | 0 |
| 558 | Delhjiko | 1:46.85 | 0 | 0 |
| 558 | Spearmint | 1:46.85 | 0 | 0 |
| 560 | Danjam8 | 1:46.86 | 0 | 0 |
| 560 | Emphy | 1:46.86 | 0 | 0 |
| 560 | Metrostation | 1:46.86 | 0 | 0 |
| 560 | DODGER MDXC | 1:46.86 | 0 | 0 |
| 560 | DomNation | 1:46.86 | 0 | 0 |
| 565 | slackster | 1:46.87 | 0 | 0 |
| 565 | EonShark | 1:46.87 | 0 | 0 |
| 565 | -Ω- | 1:46.87 | 0 | 0 |
| 565 | Antidisestablishmentarianism | 1:46.87 | 0 | 0 |
| 569 | Benji | 1:46.88 | 0 | 0 |
| 569 | Vortexesz | 1:46.88 | 0 | 0 |
| 569 | CHAINSAW MONKEY! | 1:46.88 | 0 | 0 |
| 572 | Curious Fish | 1:46.89 | 0 | 0 |
| 572 | Sylvara | 1:46.89 | 0 | 0 |
| 572 | Azem_of_Earth | 1:46.89 | 0 | 0 |
| 572 | Marco | 1:46.89 | 0 | 0 |
| 572 | JOE | 1:46.89 | 0 | 0 |
| 577 | Krull | 1:46.90 | 0 | 0 |
| 577 | ErzoopaRTR | 1:46.90 | 0 | 0 |
| 579 | Naikel [FR] | 1:46.91 | 0 | 0 |
| 579 | fxskill | 1:46.91 | 0 | 0 |
| 579 | dpooms | 1:46.91 | 0 | 0 |
| 582 | Enso | 1:46.92 | 0 | 0 |
| 582 | John Fish | 1:46.92 | 0 | 0 |
| 584 | Captain J.P wilicars | 1:46.93 | 0 | 0 |
| 584 | bacon | 1:46.93 | 0 | 0 |
| 584 | dryco | 1:46.93 | 0 | 0 |
| 587 | Sepajam | 1:46.94 | 0 | 0 |
| 588 | PowerMeep | 1:46.95 | 0 | 0 |
| 588 | Poofoo | 1:46.95 | 0 | 0 |
| 588 | iHaveAwfulIdeas | 1:46.95 | 0 | 0 |
| 588 | Neon Flash | 1:46.95 | 0 | 0 |
| 588 | Sir Johan | 1:46.95 | 0 | 0 |
| 588 | Grev "The Editor" | 1:46.95 | 0 | 0 |
| 594 | WoopdeDoop | 1:46.96 | 0 | 0 |
| 594 | sugoiangela | 1:46.96 | 0 | 0 |
| 594 | Mr.tomate :D | 1:46.96 | 0 | 0 |
| 594 | P E P S I M A N | 1:46.96 | 0 | 0 |
| 594 | itzAndre | 1:46.96 | 0 | 0 |
| 599 | ConcreteShelter | 1:46.97 | 0 | 0 |
| 599 | Joan6694 | 1:46.97 | 0 | 0 |
| 599 | NanoFren | 1:46.97 | 0 | 0 |
| 602 | JacquetheRipper | 1:46.98 | 0 | 0 |
| 602 | fläsk | 1:46.98 | 0 | 0 |
| 602 | rayman520 | 1:46.98 | 0 | 0 |
| 602 | Prae | 1:46.98 | 0 | 0 |
| 602 | ᔕuicidal Noodle | 1:46.98 | 0 | 0 |
| 602 | wiking | 1:46.98 | 0 | 0 |
| 608 | Meepo | 1:46.99 | 0 | 0 |
| 608 | LittleKittyArtemis | 1:46.99 | 0 | 0 |
| 610 | Jos | 1:47.00 | 0 | 0 |
| 610 | Mouqisti | 1:47.00 | 0 | 0 |
| 610 | Crimson Blood | 1:47.00 | 0 | 0 |
| 610 | SparraNova | 1:47.00 | 0 | 0 |
| 610 | Leviticus Blue | 1:47.00 | 0 | 0 |
| 610 | Negaprion | 1:47.00 | 0 | 0 |
| 616 | Fortress_Fox | 1:47.01 | 0 | 0 |
| 617 | SherpieBoi | 1:47.02 | 0 | 0 |
| 617 | HeavyPress | 1:47.02 | 0 | 0 |
| 619 | moj | 1:47.03 | 0 | 0 |
| 619 | ant | 1:47.03 | 0 | 0 |
| 619 | habude | 1:47.03 | 0 | 0 |
| 619 | Don Keyote | 1:47.03 | 0 | 0 |
| 619 | LobaDK | 1:47.03 | 0 | 0 |
| 624 | Benson the Bug🎶 | 1:47.04 | 0 | 0 |
| 624 | Sominin | 1:47.04 | 0 | 0 |
| 624 | TWITCH.TV/W84ME2JOIN | 1:47.04 | 0 | 0 |
| 624 | Swift | 1:47.04 | 0 | 0 |
| 624 | Lethologica7 | 1:47.04 | 0 | 0 |
| 624 | NC_Stanley_cup | 1:47.04 | 0 | 0 |
| 624 | FunRizZ | 1:47.04 | 0 | 0 |
| 624 | Saujii2 | 1:47.04 | 0 | 0 |
| 632 | Él Pigeon | 1:47.05 | 0 | 0 |
| 632 | Pryzee7 | 1:47.05 | 0 | 0 |
| 632 | TheMelonGod | 1:47.05 | 0 | 0 |
| 635 | . | 1:47.06 | 0 | 0 |
| 636 | RobloxUwU | 1:47.07 | 0 | 0 |
| 636 | Oil | 1:47.07 | 0 | 0 |
| 636 | Muggestutz | 1:47.07 | 0 | 0 |
| 636 | Drahcir Srewop | 1:47.07 | 0 | 0 |
| 636 | toniqe53 | 1:47.07 | 0 | 0 |
| 641 | Keiyo | 1:47.08 | 0 | 0 |
| 641 | Apash | 1:47.08 | 0 | 0 |
| 641 | SoftStatic | 1:47.08 | 0 | 0 |
| 644 | TirncampyMH | 1:47.09 | 0 | 0 |
| 644 | The Creeping Geek | 1:47.09 | 0 | 0 |
| 646 | Velimor | 1:47.10 | 0 | 0 |
| 647 | bkay201 | 1:47.11 | 0 | 0 |
| 647 | what the fuck ever | 1:47.11 | 0 | 0 |
| 649 | Grabuge | 1:47.12 | 0 | 0 |
| 649 | Average Shark Enjoyer | 1:47.12 | 0 | 0 |
| 649 | ExiledGen | 1:47.12 | 0 | 0 |
| 649 | Gery99 | 1:47.12 | 0 | 0 |
| 649 | Samblader | 1:47.12 | 0 | 0 |
| 649 | Void_Stardus | 1:47.12 | 0 | 0 |
| 655 | Sayukki | 1:47.13 | 0 | 0 |
| 656 | Blacky Stranger | 1:47.14 | 0 | 0 |
| 656 | KingOfTheSwamp | 1:47.14 | 0 | 0 |
| 656 | Pocuk | 1:47.14 | 0 | 0 |
| 656 | Seal_Otter | 1:47.14 | 0 | 0 |
| 660 | Gomorrha | 1:47.15 | 0 | 0 |
| 660 | LachenJager | 1:47.15 | 0 | 0 |
| 660 | SpiderBite | 1:47.15 | 0 | 0 |
| 663 | Lliane | 1:47.16 | 0 | 0 |
| 663 | Vulduv | 1:47.16 | 0 | 0 |
| 665 | Ginger | 1:47.17 | 0 | 0 |
| 665 | CuteSuissyLePoneySuisse | 1:47.17 | 0 | 0 |
| 667 | Cyandic | 1:47.18 | 0 | 0 |
| 667 | Ebeta2 | 1:47.18 | 0 | 0 |
| 669 | KWP | 1:47.19 | 0 | 0 |
| 670 | Western Imperialist | 1:47.20 | 0 | 0 |
| 670 | フ丨几Ꮆ_フ卂几 | 1:47.20 | 0 | 0 |
| 672 | 360NoBrain | 1:47.21 | 0 | 0 |
| 672 | Gory Whole | 1:47.21 | 0 | 0 |
| 672 | MedveD | 1:47.21 | 0 | 0 |
| 675 | Eternal | 1:47.22 | 0 | 0 |
| 675 | Riggs | 1:47.22 | 0 | 0 |
| 675 | Thanatos | 1:47.22 | 0 | 0 |
| 675 | Tequila_Megido | 1:47.22 | 0 | 0 |
| 675 | Mash | 1:47.22 | 0 | 0 |
| 680 | Sleepy | 1:47.24 | 0 | 0 |
| 680 | calne | 1:47.24 | 0 | 0 |
| 682 | vorador2 | 1:47.25 | 0 | 0 |
| 682 | Potted Mushroom | 1:47.25 | 0 | 0 |
| 682 | phfphefph | 1:47.25 | 0 | 0 |
| 682 | jmdajm7 | 1:47.25 | 0 | 0 |
| 682 | ♿ | 1:47.25 | 0 | 0 |
| 682 | Gage | 1:47.25 | 0 | 0 |
| 682 | Soulhunter706 | 1:47.25 | 0 | 0 |
| 682 | Noseeey | 1:47.25 | 0 | 0 |
| 690 | Irogondo | 1:47.26 | 0 | 0 |
| 690 | Moonie | 1:47.26 | 0 | 0 |
| 692 | Lofthouse | 1:47.27 | 0 | 0 |
| 692 | BatteryFresh | 1:47.27 | 0 | 0 |
| 692 | Free Range Catgirl | 1:47.27 | 0 | 0 |
| 692 | Electrum55 | 1:47.27 | 0 | 0 |
| 696 | TheGrimOfDeath | 1:47.28 | 0 | 0 |
| 696 | Eleven27 | 1:47.28 | 0 | 0 |
| 696 | ReformingMoth67 | 1:47.28 | 0 | 0 |
| 696 | Spacefarer | 1:47.28 | 0 | 0 |
| 700 | das | 1:47.29 | 0 | 0 |
| 700 | Spookyboogy | 1:47.29 | 0 | 0 |
| 700 | Hopes | 1:47.29 | 0 | 0 |
| 700 | Host | 1:47.29 | 0 | 0 |
| 704 | Atamii | 1:47.30 | 0 | 0 |
| 705 | NUKA | 1:47.31 | 0 | 0 |
| 706 | NotChrysalis | 1:47.32 | 0 | 0 |
| 707 | ZedAxiom | 1:47.33 | 0 | 0 |
| 707 | Carrott | 1:47.33 | 0 | 0 |
| 707 | Ukkri | 1:47.33 | 0 | 0 |
| 710 | Dabombber | 1:47.34 | 0 | 0 |
| 710 | Syntax | 1:47.34 | 0 | 0 |
| 710 | GabrielLivesHere | 1:47.34 | 0 | 0 |
| 710 | matheus paiva | 1:47.34 | 0 | 0 |
| 710 | CamCronin | 1:47.34 | 0 | 0 |
| 715 | Ryukiza | 1:47.35 | 0 | 0 |
| 715 | I SMASH ROCKS | 1:47.35 | 0 | 0 |
| 715 | Wamuu | 1:47.35 | 0 | 0 |
| 715 | AnonSchlingel | 1:47.35 | 0 | 0 |
| 715 | Viridus | 1:47.35 | 0 | 0 |
| 715 | slimfox45 | 1:47.35 | 0 | 0 |
| 721 | Mr. Gock Festival | 1:47.36 | 0 | 0 |
| 721 | Nickel | 1:47.36 | 0 | 0 |
| 723 | Bobby | 1:47.37 | 0 | 0 |
| 723 | ThatGuyBrit | 1:47.37 | 0 | 0 |
| 723 | StevenSite | 1:47.37 | 0 | 0 |
| 726 | Gemini | 1:47.38 | 0 | 0 |
| 726 | FourFootProdigy | 1:47.38 | 0 | 0 |
| 726 | rly | 1:47.38 | 0 | 0 |
| 729 | Maagnatism | 1:47.39 | 0 | 0 |
| 729 | StormZ | 1:47.39 | 0 | 0 |
| 731 | Emerald_Pick | 1:47.40 | 0 | 0 |
| 732 | AndonisLP | 1:47.42 | 0 | 0 |
| 732 | FabioTheTurtle | 1:47.42 | 0 | 0 |
| 732 | Kataou | 1:47.42 | 0 | 0 |
| 732 | NitroMugenGaming | 1:47.42 | 0 | 0 |
| 736 | Aerus | 1:47.43 | 0 | 0 |
| 736 | Gyodesis | 1:47.43 | 0 | 0 |
| 738 | Lore maker | 1:47.44 | 0 | 0 |
| 739 | Cheapo | 1:47.45 | 0 | 0 |
| 739 | Rich Uncle Pennybags | 1:47.45 | 0 | 0 |
| 741 | Corplace | 1:47.46 | 0 | 0 |
| 742 | DekenFrost | 1:47.48 | 0 | 0 |
| 742 | kriz_chan | 1:47.48 | 0 | 0 |
| 742 | Apocalyptic Bunny | 1:47.48 | 0 | 0 |
| 742 | TKVA | 1:47.48 | 0 | 0 |
| 746 | Glas | 1:47.49 | 0 | 0 |
| 747 | Ember | 1:47.50 | 0 | 0 |
| 747 | Valankor | 1:47.50 | 0 | 0 |
| 747 | NekoBazzu | 1:47.50 | 0 | 0 |
| 750 | Serg | 1:47.51 | 0 | 0 |
| 751 | Skye! | 1:47.52 | 0 | 0 |
| 751 | Graviterium | 1:47.52 | 0 | 0 |
| 753 | Exoman | 1:47.53 | 0 | 0 |
| 754 | Sopa Do Macuca | 1:47.54 | 0 | 0 |
| 755 | Frog | 1:47.55 | 0 | 0 |
| 756 | Rerun | 1:47.57 | 0 | 0 |
| 757 | Eikitchi | 1:47.59 | 0 | 0 |
| 757 | El_Nacho | 1:47.59 | 0 | 0 |
| 759 | Marwan Green Critter | 1:47.60 | 0 | 0 |
| 759 | Stracciatella | 1:47.60 | 0 | 0 |
| 759 | Slippery Lil' Arms | 1:47.60 | 0 | 0 |
| 759 | [ ] | 1:47.60 | 0 | 0 |
| 763 | ArgonHAM | 1:47.61 | 0 | 0 |
| 763 | Azeria | アゼリア | 1:47.61 | 0 | 0 |
| 765 | Burning Mice | 1:47.62 | 0 | 0 |
| 765 | Imperial L Ray | 1:47.62 | 0 | 0 |
| 767 | MIAT | 1:47.63 | 0 | 0 |
| 767 | EchoTrash ♀ (Alt) | 1:47.63 | 0 | 0 |
| 769 | Tesselode | 1:47.64 | 0 | 0 |
| 769 | A man | 1:47.64 | 0 | 0 |
| 769 | Ash3025 | 1:47.64 | 0 | 0 |
| 772 | Leonard | 1:47.65 | 0 | 0 |
| 773 | Extraterrestrial Triceratops | 1:47.66 | 0 | 0 |
| 773 | Ruina Last | 1:47.66 | 0 | 0 |
| 775 | edc | 1:47.67 | 0 | 0 |
| 776 | Haeghwind | 1:47.68 | 0 | 0 |
| 776 | [BIT]Tonic | 1:47.68 | 0 | 0 |
| 776 | Pfirsichgelee | 1:47.68 | 0 | 0 |
| 779 | fhqwhgads | 1:47.69 | 0 | 0 |
| 779 | ZW98 | 1:47.69 | 0 | 0 |
| 781 | the heavenly homie | 1:47.70 | 0 | 0 |
| 782 | Лесной болван | 1:47.71 | 0 | 0 |
| 783 | DaHam | 1:47.72 | 0 | 0 |
| 783 | Shammy | 1:47.72 | 0 | 0 |
| 783 | Viridian | 1:47.72 | 0 | 0 |
| 783 | Vyneci | 1:47.72 | 0 | 0 |
| 783 | foolish rat | 1:47.72 | 0 | 0 |
| 788 | Cursed Fire | 1:47.73 | 0 | 0 |
| 788 | The Good Gaming Dragon | 1:47.73 | 0 | 0 |
| 790 | shamshel | 1:47.74 | 0 | 0 |
| 791 | Bananbulance | 1:47.75 | 0 | 0 |
| 792 | Bowsori | 1:47.77 | 0 | 0 |
| 792 | codename_rb | 1:47.77 | 0 | 0 |
| 794 | Duke Swampy | 1:47.78 | 0 | 0 |
| 794 | Forte | 1:47.78 | 0 | 0 |
| 796 | KWW_ROSS | 1:47.79 | 0 | 0 |
| 797 | BasDeBas | 1:47.80 | 0 | 0 |
| 797 | Jara | 1:47.80 | 0 | 0 |
| 799 | Zeta | 1:47.81 | 0 | 0 |
| 800 | Redblacky | 1:47.82 | 0 | 0 |
| 800 | tyon25 | 1:47.82 | 0 | 0 |
| 800 | Shadow34 | 1:47.82 | 0 | 0 |
| 800 | TotoSmith1992 | 1:47.82 | 0 | 0 |
| 804 | glitchthe3rd | 1:47.85 | 0 | 0 |
| 805 | Hornsking | 1:47.87 | 0 | 0 |
| 805 | Rat on a Computer | 1:47.87 | 0 | 0 |
| 805 | Makku | 1:47.87 | 0 | 0 |
| 805 | ToyoColla | 1:47.87 | 0 | 0 |
| 809 | Zqrth | 1:47.89 | 0 | 0 |
| 810 | MAT D.R.⎛⎝≥⏝⏝≤⎠⎞ | 1:47.90 | 0 | 0 |
| 810 | blamecoopa | 1:47.90 | 0 | 0 |
| 812 | Simeon | 1:47.92 | 0 | 0 |
| 813 | BluntButters | 1:47.93 | 0 | 0 |
| 813 | InhaleMyBumhole | 1:47.93 | 0 | 0 |
| 815 | DirtyVader | 1:47.94 | 0 | 0 |
| 816 | Cerberus14 | 1:47.96 | 0 | 0 |
| 817 | Xiooo | 1:47.97 | 0 | 0 |
| 818 | Morii | 1:47.98 | 0 | 0 |
| 819 | OnionKing | 1:47.99 | 0 | 0 |
| 820 | Amethos | 1:48.02 | 0 | 0 |
| 821 | Apoctix | 1:48.04 | 0 | 0 |
| 822 | Idontevenknowyou! | 1:48.06 | 0 | 0 |
| 823 | tiscassu | 1:48.07 | 0 | 0 |
| 824 | Bear | 1:48.08 | 0 | 0 |
| 825 | depressoexpressc | 1:48.10 | 0 | 0 |
| 826 | Highly | 1:48.11 | 0 | 0 |
| 827 | timhufflepuff | 1:48.12 | 0 | 0 |
| 828 | Ninja Squirel | 1:48.14 | 0 | 0 |
| 829 | Silverhand Johnny | 1:48.15 | 0 | 0 |
| 830 | greenscorpeon3 | 1:48.18 | 0 | 0 |
| 831 | 2zqa | 1:48.19 | 0 | 0 |
| 832 | BumbleFunkMcGee | 1:48.21 | 0 | 0 |
| 833 | miniminimoose | 1:48.22 | 0 | 0 |
| 834 | CS | 1:48.23 | 0 | 0 |
| 835 | Umbreon™ | 1:48.25 | 0 | 0 |
| 835 | hoknjok | 1:48.25 | 0 | 0 |
| 835 | XMD007 | 1:48.25 | 0 | 0 |
| 838 | JankyDingus | 1:48.26 | 0 | 0 |
| 838 | SolSkyline | 1:48.26 | 0 | 0 |
| 840 | ///fuze | 1:48.29 | 0 | 0 |
| 841 | Blast | 1:48.32 | 0 | 0 |
| 841 | Pyrrus | 1:48.32 | 0 | 0 |
| 841 | Kmglrti | 1:48.32 | 0 | 0 |
| 841 | Typhon | 1:48.32 | 0 | 0 |
| 845 | r2andrew | 1:48.33 | 0 | 0 |
| 846 | Pipsibean | 1:48.34 | 0 | 0 |
| 847 | Pesky Bee | 1:48.35 | 0 | 0 |
| 847 | Spark79 | 1:48.35 | 0 | 0 |
| 849 | CrazyPass | 1:48.37 | 0 | 0 |
| 849 | ArtyomA14 | 1:48.37 | 0 | 0 |
| 849 | 540sk | 1:48.37 | 0 | 0 |
| 852 | Grimn | 1:48.47 | 0 | 0 |
| 852 | sparrow16 | 1:48.47 | 0 | 0 |
| 854 | GlueMan | 1:48.48 | 0 | 0 |
| 854 | A̶͓̓z̷͓̍ũ̴̩r̷͔͐e̴ | 1:48.48 | 0 | 0 |
| 854 | Jawsh | 1:48.48 | 0 | 0 |
| 854 | Kypar | 1:48.48 | 0 | 0 |
| 858 | Reinforce Virta | 1:48.49 | 0 | 0 |
| 859 | Vick | 1:48.51 | 0 | 0 |
| 860 | LNTC | 1:48.52 | 0 | 0 |
| 861 | Mario Indianapolis | 1:48.58 | 0 | 0 |
| 862 | handsome jack o' lantern | 1:48.62 | 0 | 0 |
| 863 | That British Guy | 1:48.65 | 0 | 0 |
| 864 | itsukarine | 1:48.67 | 0 | 0 |
| 864 | julio_alexx | 1:48.67 | 0 | 0 |
| 866 | Andreizovisky | 1:48.70 | 0 | 0 |
| 867 | 『Pepsi-Man』 | 1:48.71 | 0 | 0 |
| 868 | Ryuki | 1:48.74 | 0 | 0 |
| 869 | Grimmy | 1:48.76 | 0 | 0 |
| 869 | Rain | 1:48.76 | 0 | 0 |
| 871 | Felynka | 1:48.77 | 0 | 0 |
| 872 | iamelementalsword | 1:48.88 | 0 | 0 |
| 873 | WYR3 | 1:48.91 | 0 | 0 |
| 874 | Dubblr | 1:48.97 | 0 | 0 |
| 874 | Sir Ducksworth | 1:48.97 | 0 | 0 |
| 874 | Kaiji is moe | 1:48.97 | 0 | 0 |
| 877 | HOD | 1:49.00 | 0 | 0 |
| 878 | PlΣXi | 1:49.13 | 0 | 0 |
| 879 | BlazeHedgehog | 1:49.15 | 0 | 0 |
| 880 | kal3cy | 1:49.21 | 0 | 0 |
| 881 | Remainder | 1:49.26 | 0 | 0 |
| 881 | BlueLighted | 1:49.26 | 0 | 0 |
| 883 | TantasStarke | 1:49.28 | 0 | 0 |
| 884 | TheBoringMan | 1:49.31 | 0 | 0 |
| 884 | Kirbae | 1:49.31 | 0 | 0 |
| 886 | Muusdude | 1:49.34 | 0 | 0 |
| 887 | badyherz | 1:49.35 | 0 | 0 |
| 888 | Galaxy | 1:49.36 | 0 | 0 |
| 889 | replikaeyes | 1:49.39 | 0 | 0 |
| 889 | Discussor | 1:49.39 | 0 | 0 |
| 891 | Skransow | 1:49.41 | 0 | 0 |
| 892 | Flamby | 1:49.42 | 0 | 0 |
| 893 | slinch | 1:49.43 | 0 | 0 |
| 894 | Not without my cans! | 1:49.44 | 0 | 0 |
| 894 | Corruptor | 1:49.44 | 0 | 0 |
| 896 | carrillojair53 | 1:49.49 | 0 | 0 |
| 897 | Rush | 1:49.50 | 0 | 0 |
| 898 | Adm | 1:49.51 | 0 | 0 |
| 899 | Hermitter | 1:49.53 | 0 | 0 |
| 900 | Müllabholer | 1:49.54 | 0 | 0 |
| 901 | Kepslok | 1:49.56 | 0 | 0 |
| 902 | Mr Mysterius | 1:49.58 | 0 | 0 |
| 902 | sizifov | 1:49.58 | 0 | 0 |
| 904 | E0N | 1:49.59 | 0 | 0 |
| 905 | nepvee | 1:49.62 | 0 | 0 |
| 906 | NaterrPinata | 1:49.63 | 0 | 0 |
| 907 | onyxglow | 1:49.64 | 0 | 0 |
| 907 | Jarek718 | 1:49.64 | 0 | 0 |
| 909 | Kalimbato | 1:49.67 | 0 | 0 |
| 910 | all3adron | 1:49.68 | 0 | 0 |
| 911 | HypnoticHawk | 1:49.72 | 0 | 0 |
| 912 | Tojin_ | 1:49.75 | 0 | 0 |
| 913 | danny1234331 | 1:49.77 | 0 | 0 |
| 914 | Lud | Forest | 1:49.83 | 0 | 0 |
| 915 | Adrimg_rider | 1:49.85 | 0 | 0 |
| 916 | ShadowWolf | 1:49.90 | 0 | 0 |
| 917 | Samn | 1:49.98 | 0 | 0 |
| 918 | K-NiGHT | 1:49.99 | 0 | 0 |
| 919 | Spoiler Alert | 1:50.01 | 0 | 0 |
| 920 | Hiddelgreyk | 1:50.03 | 0 | 0 |
| 921 | Tem | 1:50.10 | 0 | 0 |
| 921 | MechaFemboy | 1:50.10 | 0 | 0 |
| 921 | Lupeling | 1:50.10 | 0 | 0 |
| 924 | Lasonidas | 1:50.14 | 0 | 0 |
| 924 | Monark10 | 1:50.14 | 0 | 0 |
| 926 | Skwerley | 1:50.17 | 0 | 0 |
| 927 | Lunar Knight36 | 1:50.21 | 0 | 0 |
| 927 | DemoKnight Or Busty | 1:50.21 | 0 | 0 |
| 929 | Sunzara | 1:50.22 | 0 | 0 |
| 930 | KianNotCyan | 1:50.27 | 0 | 0 |
| 931 | racing like a pisshorse | 1:50.28 | 0 | 0 |
| 932 | Nateskur | 1:50.30 | 0 | 0 |
| 932 | Chudnado | 1:50.30 | 0 | 0 |
| 934 | CactusJack | 1:50.31 | 0 | 0 |
| 934 | Spelunkadoodle | 1:50.31 | 0 | 0 |
| 936 | Lesae Ephu | 1:50.32 | 0 | 0 |
| 937 | Dimanchella | 1:50.33 | 0 | 0 |
| 938 | EnderKill98 | 1:50.34 | 0 | 0 |
| 939 | Chaos Chris | 1:50.36 | 0 | 0 |
| 940 | moomers | 1:50.37 | 0 | 0 |
| 940 | thepcbear | 1:50.37 | 0 | 0 |
| 942 | cocob4 | 1:50.38 | 0 | 0 |
| 943 | MusicPilot n.5 | 1:50.41 | 0 | 0 |
| 944 | Seversol | 1:50.47 | 0 | 0 |
| 945 | leonski goldberg | 1:50.48 | 0 | 0 |
| 946 | Distance306 | 1:50.49 | 0 | 0 |
| 947 | Franny | 1:50.53 | 0 | 0 |
| 948 | Jercasem | 1:50.54 | 0 | 0 |
| 949 | Berndbob Totkopf | 1:50.55 | 0 | 0 |
| 950 | Dante 🐱 | 1:50.61 | 0 | 0 |
| 951 | Richard | 1:50.65 | 0 | 0 |
| 952 | Livonius | 1:50.67 | 0 | 0 |
| 953 | T'mon The Fat | 1:50.89 | 0 | 0 |
| 954 | G5TNo2486 | 1:50.91 | 0 | 0 |
| 955 | L4v4 | 1:50.92 | 0 | 0 |
| 956 | pie | 1:50.93 | 0 | 0 |
| 957 | jnfred | 1:51.06 | 0 | 0 |
| 958 | Kuchi | 1:51.07 | 0 | 0 |
| 959 | Slender19rus | 1:51.09 | 0 | 0 |
| 960 | SIGSTACKFAULT | 1:51.16 | 0 | 0 |
| 960 | Blex | 1:51.16 | 0 | 0 |
| 962 | S.Kappelmann | 1:51.20 | 0 | 0 |
| 963 | BennLivid | 1:51.24 | 0 | 0 |
| 964 | krakentoa | 1:51.28 | 0 | 0 |
| 965 | Kyanite | 1:51.33 | 0 | 0 |
| 966 | BigThirsty | 1:51.36 | 0 | 0 |
| 966 | LeoShadic345 | 1:51.36 | 0 | 0 |
| 968 | juvo | 1:51.37 | 0 | 0 |
| 968 | Frozen Dino | 1:51.37 | 0 | 0 |
| 970 | ratgirl | 1:51.39 | 0 | 0 |
| 971 | MarsDevastater | 1:51.40 | 0 | 0 |
| 972 | limb0 | 1:51.41 | 0 | 0 |
| 973 | Slyppa | 1:51.48 | 0 | 0 |
| 974 | Kerberos | 1:51.49 | 0 | 0 |
| 975 | Lighti | 1:51.53 | 0 | 0 |
| 976 | hunter31626 | 1:51.56 | 0 | 0 |
| 976 | CrossRoads | 1:51.56 | 0 | 0 |
| 978 | Luna Kisunya | 1:51.61 | 0 | 0 |
| 979 | DarthTaco | 1:51.65 | 0 | 0 |
| 980 | Marc | 1:51.73 | 0 | 0 |
| 981 | Clem | 1:51.75 | 0 | 0 |
| 981 | Gorczy | 1:51.75 | 0 | 0 |
| 983 | DF4 | 1:51.76 | 0 | 0 |
| 984 | DOOM | 1:51.82 | 0 | 0 |
| 985 | Taelu | 1:51.84 | 0 | 0 |
| 986 | Ion | 1:51.85 | 0 | 0 |
| 986 | Greenfire DX | 1:51.85 | 0 | 0 |
| 986 | Dubious | 1:51.85 | 0 | 0 |
| 989 | ImTheo51 | 1:51.87 | 0 | 0 |
| 989 | Rule34-chan | 1:51.87 | 0 | 0 |
| 991 | Garstine | 1:51.88 | 0 | 0 |
| 992 | Dan | 1:51.92 | 0 | 0 |
| 993 | BombLance | 1:51.94 | 0 | 0 |
| 994 | catbotz | 1:51.96 | 0 | 0 |
| 995 | Luis Glacius | 1:51.97 | 0 | 0 |
| 996 | Weirdiolio | 1:52.07 | 0 | 0 |
| 997 | Vorpal Soul | 1:52.10 | 0 | 0 |
| 997 | Nainji | 1:52.10 | 0 | 0 |
| 999 | crimes.against.art | 1:52.11 | 0 | 0 |
| 1,000 | Alei Mahadei | 1:52.22 | 0 | 0 |
| 1,001 | *PLOLIJ* | 1:52.24 | 0 | 0 |
| 1,002 | JeffTheBruh | 1:52.27 | 0 | 0 |
| 1,003 | PYROM4NI4CC | 1:52.29 | 0 | 0 |
| 1,004 | Amuzet | 1:52.30 | 0 | 0 |
| 1,004 | Kyud | 1:52.30 | 0 | 0 |
| 1,004 | blur | 1:52.30 | 0 | 0 |
| 1,007 | Feanor | 1:52.35 | 0 | 0 |
| 1,007 | StyleBug00 | 1:52.35 | 0 | 0 |
| 1,009 | Spiralasis | 1:52.44 | 0 | 0 |
| 1,010 | CageEater | 1:52.48 | 0 | 0 |
| 1,010 | Alastrion | 1:52.48 | 0 | 0 |
| 1,012 | HISKI LP | 1:52.52 | 0 | 0 |
| 1,012 | Brawlimar | 1:52.52 | 0 | 0 |
| 1,014 | Alexander | 1:52.54 | 0 | 0 |
| 1,015 | DvN | 1:52.55 | 0 | 0 |
| 1,016 | Moussiah | 1:52.56 | 0 | 0 |
| 1,017 | kaddto | 1:52.57 | 0 | 0 |
| 1,018 | wifi | 1:52.61 | 0 | 0 |
| 1,019 | JackalDrive | 1:52.63 | 0 | 0 |
| 1,020 | Nattear | 1:52.65 | 0 | 0 |
| 1,021 | Rycka | 1:52.66 | 0 | 0 |
| 1,021 | GabigoG | 1:52.66 | 0 | 0 |
| 1,023 | KaMozo25 | 1:52.67 | 0 | 0 |
| 1,024 | Sinner | 1:52.73 | 0 | 0 |
| 1,025 | ItsMarcus | 1:52.77 | 0 | 0 |
| 1,025 | WTFrogs | 1:52.77 | 0 | 0 |
| 1,027 | Gecko95 | 1:52.93 | 0 | 0 |
| 1,028 | zlisk | 1:52.94 | 0 | 0 |
| 1,029 | Fernan | 1:52.99 | 0 | 0 |
| 1,030 | GekoKid | 1:53.02 | 0 | 0 |
| 1,031 | lait | 1:53.07 | 0 | 0 |
| 1,032 | Spindragon | 1:53.11 | 0 | 0 |
| 1,033 | MARIODROPS | 1:53.18 | 0 | 0 |
| 1,034 | Nigeta | 1:53.19 | 0 | 0 |
| 1,035 | Ichigo | 1:53.20 | 0 | 0 |
| 1,036 | 2koiraa | 1:53.21 | 0 | 0 |
| 1,037 | NK - Néko | 1:53.24 | 0 | 0 |
| 1,038 | Hirochi | 1:53.25 | 0 | 0 |
| 1,038 | Jaymber | 1:53.25 | 0 | 0 |
| 1,040 | RPX | 1:53.28 | 0 | 0 |
| 1,041 | tatertotsrock | 1:53.32 | 0 | 0 |
| 1,042 | Zodijackyl Light | 1:53.33 | 0 | 0 |
| 1,042 | Fullthrough | 1:53.33 | 0 | 0 |
| 1,044 | Reconik | 1:53.35 | 0 | 0 |
| 1,045 | Merle | 1:53.37 | 0 | 0 |
| 1,046 | Pato | 1:53.40 | 0 | 0 |
| 1,047 | Bistdocs | 1:53.42 | 0 | 0 |
| 1,047 | m1nt_ | 1:53.42 | 0 | 0 |
| 1,049 | svsamuelvitormaximo16 | 1:53.45 | 0 | 0 |
| 1,050 | TheEccentric | 1:53.46 | 0 | 0 |
| 1,051 | Gnarrang | 1:53.47 | 0 | 0 |
| 1,052 | Woren | 1:53.50 | 0 | 0 |
| 1,053 | tveh | 1:53.52 | 0 | 0 |
| 1,054 | MistaHorse | 1:53.61 | 0 | 0 |
| 1,055 | Sagara | 1:53.65 | 0 | 0 |
| 1,056 | Half | 1:53.67 | 0 | 0 |
| 1,056 | A | 1:53.67 | 0 | 0 |
| 1,058 | Slax_ | 1:53.68 | 0 | 0 |
| 1,059 | litup | 1:53.71 | 0 | 0 |
| 1,060 | Zenixic | 1:53.72 | 0 | 0 |
| 1,061 | gp | 1:53.77 | 0 | 0 |
| 1,061 | yeah | 1:53.77 | 0 | 0 |
| 1,063 | Jerico Venado | 1:53.78 | 0 | 0 |
| 1,064 | El_Druin | 1:53.81 | 0 | 0 |
| 1,065 | QuasarSevilla | 1:53.84 | 0 | 0 |
| 1,065 | Fromage | 1:53.84 | 0 | 0 |
| 1,065 | Agnes | 1:53.84 | 0 | 0 |
| 1,068 | VectorBot | 1:53.86 | 0 | 0 |
| 1,069 | Ren-Ren | 1:53.91 | 0 | 0 |
| 1,070 | Axhilis | 1:53.96 | 0 | 0 |
| 1,071 | Krios | 1:53.99 | 0 | 0 |
| 1,072 | Phaserlight | 1:54.02 | 0 | 0 |
| 1,072 | troysmith14 | 1:54.02 | 0 | 0 |
| 1,074 | SoulsCommand | 1:54.05 | 0 | 0 |
| 1,075 | Lily | 1:54.07 | 0 | 0 |
| 1,075 | Gragzone | 1:54.07 | 0 | 0 |
| 1,077 | Snayssin | 1:54.08 | 0 | 0 |
| 1,078 | Dracheron | 1:54.11 | 0 | 0 |
| 1,079 | #1 Tears4Fears Fan | 1:54.14 | 0 | 0 |
| 1,080 | Whisky_Mike | 1:54.17 | 0 | 0 |
| 1,081 | SPλRROW | 1:54.18 | 0 | 0 |
| 1,081 | BigToni | 1:54.18 | 0 | 0 |
| 1,081 | Apelesin | 1:54.18 | 0 | 0 |
| 1,084 | 2Infinity&Evil | 1:54.20 | 0 | 0 |
| 1,084 | RST_Fox | 1:54.20 | 0 | 0 |
| 1,086 | DaBlazeMann | 1:54.24 | 0 | 0 |
| 1,086 | Devbear | 1:54.24 | 0 | 0 |
| 1,088 | Aespher | 1:54.25 | 0 | 0 |
| 1,089 | Autism M5 Max | 1:54.27 | 0 | 0 |
| 1,090 | GOOSE SATAN! | 1:54.28 | 0 | 0 |
| 1,091 | < blank > | 1:54.38 | 0 | 0 |
| 1,091 | Jezo | 1:54.38 | 0 | 0 |
| 1,093 | SneakyBombsuit | 1:54.39 | 0 | 0 |
| 1,093 | Captain Phlarper | 1:54.39 | 0 | 0 |
| 1,095 | KillerHawk | 1:54.40 | 0 | 0 |
| 1,096 | Buzzlightyear | 1:54.43 | 0 | 0 |
| 1,097 | F.L.P-e tank24 | 1:54.45 | 0 | 0 |
| 1,098 | CygnusAutomata | 1:54.46 | 0 | 0 |
| 1,099 | ijhammerhead | 1:54.49 | 0 | 0 |
| 1,100 | ... | 1:54.50 | 0 | 0 |
| 1,101 | Nitrium | 1:54.51 | 0 | 0 |
| 1,102 | T8Destroyer | 1:54.54 | 0 | 0 |
| 1,103 | Polysics | 1:54.55 | 0 | 0 |
| 1,103 | Salzpriester | 1:54.55 | 0 | 0 |
| 1,105 | Bot_14 | 1:54.57 | 0 | 0 |
| 1,105 | Dyltra | 1:54.57 | 0 | 0 |
| 1,107 | Magister Ludi | 1:54.61 | 0 | 0 |
| 1,108 | flo | 1:54.62 | 0 | 0 |
| 1,109 | Trixietiel | 1:54.65 | 0 | 0 |
| 1,110 | Turtelus_Grande | 1:54.67 | 0 | 0 |
| 1,111 | Grenadine Poplar | 1:54.68 | 0 | 0 |
| 1,112 | Kostan | 1:54.73 | 0 | 0 |
| 1,112 | jonesysound | 1:54.73 | 0 | 0 |
| 1,114 | Dan | 1:54.78 | 0 | 0 |
| 1,115 | TheFluffyDragon/JBSTheGamer | 1:54.80 | 0 | 0 |
| 1,116 | Mikaho | 1:54.81 | 0 | 0 |
| 1,117 | Lex Solhaime | 1:54.82 | 0 | 0 |
| 1,118 | mrg.dem | 1:54.83 | 0 | 0 |
| 1,119 | PVCSlayer | 1:54.85 | 0 | 0 |
| 1,120 | Macinteuch Plus | 1:54.86 | 0 | 0 |
| 1,120 | LordBohne2 | 1:54.86 | 0 | 0 |
| 1,122 | Saladus | 1:54.88 | 0 | 0 |
| 1,123 | torcht | 1:54.90 | 0 | 0 |
| 1,124 | Ahhrealpeople | 1:54.91 | 0 | 0 |
| 1,125 | Birdiot | 1:54.92 | 0 | 0 |
| 1,125 | Maxafrost | 1:54.92 | 0 | 0 |
| 1,127 | vantage1231 | 1:54.93 | 0 | 0 |
| 1,128 | ash | 1:54.95 | 0 | 0 |
| 1,128 | Cathy | 1:54.95 | 0 | 0 |
| 1,130 | CBT Enthusiast | 1:54.96 | 0 | 0 |
| 1,131 | TartanKitty773 | 1:54.98 | 0 | 0 |
| 1,132 | Haferkuchen | 1:55.00 | 0 | 0 |
| 1,132 | Чаечек ☂ | 1:55.00 | 0 | 0 |
| 1,134 | Neon Driver | 1:55.01 | 0 | 0 |
| 1,134 | Pig Tattoo | 1:55.01 | 0 | 0 |
| 1,134 | Lettuce | 1:55.01 | 0 | 0 |
| 1,137 | The Gun | 1:55.05 | 0 | 0 |
| 1,138 | berenji012 | 1:55.08 | 0 | 0 |
| 1,139 | CheeseWithHoles | 1:55.12 | 0 | 0 |
| 1,139 | marrowick | 1:55.12 | 0 | 0 |
| 1,141 | Makuta | 1:55.14 | 0 | 0 |
| 1,142 | HyratelWyvern | 1:55.16 | 0 | 0 |
| 1,142 | Lil O.D. | 1:55.16 | 0 | 0 |
| 1,142 | TheStrangeLad | 1:55.16 | 0 | 0 |
| 1,145 | ANTS IN MY EYES JOHNSON | 1:55.17 | 0 | 0 |
| 1,146 | BuzZoiD | 1:55.18 | 0 | 0 |
| 1,146 | RejectedEcho | 1:55.18 | 0 | 0 |
| 1,148 | iamzim | 1:55.19 | 0 | 0 |
| 1,148 | Disco783 | 1:55.19 | 0 | 0 |
| 1,150 | and kevin bacon | 1:55.20 | 0 | 0 |
| 1,150 | Combat Corpse | 1:55.20 | 0 | 0 |
| 1,152 | RunningMountain | 1:55.22 | 0 | 0 |
| 1,153 | Simon Evo | 1:55.24 | 0 | 0 |
| 1,153 | Najred | 1:55.24 | 0 | 0 |
| 1,155 | Miles | 1:55.26 | 0 | 0 |
| 1,156 | Hightree | 1:55.28 | 0 | 0 |
| 1,157 | ShadowS56 | 1:55.29 | 0 | 0 |
| 1,157 | CR1MS0N595 | 1:55.29 | 0 | 0 |
| 1,159 | Irotas | 1:55.31 | 0 | 0 |
| 1,160 | Edragon | 1:55.33 | 0 | 0 |
| 1,161 | Jam Over | 1:55.34 | 0 | 0 |
| 1,162 | Cujo Cat :3 | 1:55.36 | 0 | 0 |
| 1,163 | Lady Yuna Yosha | 1:55.37 | 0 | 0 |
| 1,164 | jumako | 1:55.38 | 0 | 0 |
| 1,165 | Horpp | 1:55.40 | 0 | 0 |
| 1,166 | Wedel25 | 1:55.41 | 0 | 0 |
| 1,167 | GhostOfABullet | 1:55.42 | 0 | 0 |
| 1,168 | Frizzybman11 | 1:55.44 | 0 | 0 |
| 1,169 | JAG | 1:55.45 | 0 | 0 |
| 1,169 | 24/7 Alpha | 1:55.45 | 0 | 0 |
| 1,169 | Hars | 1:55.45 | 0 | 0 |
| 1,172 | DefraggedSSD | 1:55.48 | 0 | 0 |
| 1,173 | Phillipus | 1:55.49 | 0 | 0 |
| 1,173 | IA | 1:55.49 | 0 | 0 |
| 1,173 | Saphira Kai | 1:55.49 | 0 | 0 |
| 1,176 | PootisMayo | 1:55.50 | 0 | 0 |
| 1,177 | Thing 1 | 1:55.51 | 0 | 0 |
| 1,178 | Sekinovitchz | 1:55.52 | 0 | 0 |
| 1,179 | Thoqkeezium Reginald the 3rd | 1:55.53 | 0 | 0 |
| 1,179 | Jack | 1:55.53 | 0 | 0 |
| 1,181 | tyty⛐ | 1:55.54 | 0 | 0 |
| 1,182 | Artum | 1:55.55 | 0 | 0 |
| 1,183 | ExMax | 1:55.56 | 0 | 0 |
| 1,183 | Baricus | 1:55.56 | 0 | 0 |
| 1,183 | Dekkosun™ | 1:55.56 | 0 | 0 |
| 1,186 | Impatotec | 1:55.57 | 0 | 0 |
| 1,186 | Gidan | 1:55.57 | 0 | 0 |
| 1,186 | Razor_ZXM | 1:55.57 | 0 | 0 |
| 1,189 | dan96kid | 1:55.59 | 0 | 0 |
| 1,189 | Gil Mix Diversos 01 | 1:55.59 | 0 | 0 |
| 1,191 | SP** | 1:55.62 | 0 | 0 |
| 1,191 | RedΛngel | 1:55.62 | 0 | 0 |
| 1,191 | markschuurman1990 | 1:55.62 | 0 | 0 |
| 1,194 | justpeace.jp | 1:55.64 | 0 | 0 |
| 1,195 | Ironside451 | 1:55.65 | 0 | 0 |
| 1,195 | Rockwecker [GER] | 1:55.65 | 0 | 0 |
| 1,197 | sparx041 | 1:55.69 | 0 | 0 |
| 1,198 | a beaver | 1:55.70 | 0 | 0 |
| 1,198 | Mamuuh | 1:55.70 | 0 | 0 |
| 1,200 | SC000TER | 1:55.71 | 0 | 0 |
| 1,201 | LunaPwny | 1:55.72 | 0 | 0 |
| 1,201 | Ròókie Red | 1:55.72 | 0 | 0 |
| 1,203 | Samimimi | 1:55.73 | 0 | 0 |
| 1,203 | RenTide4 | 1:55.73 | 0 | 0 |
| 1,205 | TheIcyOne | 1:55.78 | 0 | 0 |
| 1,206 | enejūto | 1:55.81 | 0 | 0 |
| 1,207 | Imperialbrutal | 1:55.82 | 0 | 0 |
| 1,208 | Felix GER | 1:55.85 | 0 | 0 |
| 1,209 | Kuuko | 1:55.87 | 0 | 0 |
| 1,209 | DSLMajoras | 1:55.87 | 0 | 0 |
| 1,211 | Grimhelm Thunderblood | 1:55.88 | 0 | 0 |
| 1,211 | Alrunes | 1:55.88 | 0 | 0 |
| 1,211 | Vueko | 1:55.88 | 0 | 0 |
| 1,214 | StЗamGear | 1:55.89 | 0 | 0 |
| 1,215 | kildert5 | 1:55.91 | 0 | 0 |
| 1,216 | SpongeJosh | 1:55.92 | 0 | 0 |
| 1,216 | Phontonic | 1:55.92 | 0 | 0 |
| 1,218 | Antumarin | 1:55.97 | 0 | 0 |
| 1,219 | Katastrophe | 1:55.98 | 0 | 0 |
| 1,220 | citysun | 1:55.99 | 0 | 0 |
| 1,221 | Average Keith | 1:56.00 | 0 | 0 |
| 1,221 | Bumblebreast | 1:56.00 | 0 | 0 |
| 1,221 | Lunarjman89 | 1:56.00 | 0 | 0 |
| 1,221 | TheLastW0rd | 1:56.00 | 0 | 0 |
| 1,225 | Vert | 1:56.03 | 0 | 0 |
| 1,226 | Jacob Jonkler | 1:56.17 | 0 | 0 |
| 1,226 | Mațț | 1:56.17 | 0 | 0 |
| 1,226 | Vencer | 1:56.17 | 0 | 0 |
| 1,229 | RadLad25X | 1:56.20 | 0 | 0 |
| 1,230 | ✪Сталин✪ | 1:56.22 | 0 | 0 |
| 1,231 | Wildclaw | 1:56.28 | 0 | 0 |
| 1,232 | ZRH3H | 1:56.30 | 0 | 0 |
| 1,233 | LyteSpawn | 1:56.31 | 0 | 0 |
| 1,233 | PowaRanja | 1:56.31 | 0 | 0 |
| 1,235 | Slim soup | 1:56.32 | 0 | 0 |
| 1,236 | Silver | 1:56.33 | 0 | 0 |
| 1,237 | Wipeout! | 1:56.35 | 0 | 0 |
| 1,238 | Abnormal Cybran | 1:56.36 | 0 | 0 |
| 1,238 | Girahimu | 1:56.36 | 0 | 0 |
| 1,240 | FrostCorp | 1:56.37 | 0 | 0 |
| 1,241 | Cheesy Bean and Rice Burrito | 1:56.44 | 0 | 0 |
| 1,242 | Pardalote | 1:56.49 | 0 | 0 |
| 1,243 | Shinchi | 1:56.51 | 0 | 0 |
| 1,244 | Zeakeo | 1:56.52 | 0 | 0 |
| 1,244 | Mirianne | 1:56.52 | 0 | 0 |
| 1,246 | Tamer | 1:56.54 | 0 | 0 |
| 1,247 | Holo | 1:56.57 | 0 | 0 |
| 1,248 | Grönk | 1:56.58 | 0 | 0 |
| 1,249 | Zohran Mamdani | 1:56.59 | 0 | 0 |
| 1,250 | Lena_thePilot | 1:56.60 | 0 | 0 |
| 1,251 | Tybalt the First | 1:56.62 | 0 | 0 |
| 1,251 | Drizzle | 1:56.62 | 0 | 0 |
| 1,251 | Mage Vivian the Matriarch | 1:56.62 | 0 | 0 |
| 1,254 | D0HERRITT | 1:56.63 | 0 | 0 |
| 1,255 | Nat$u | 1:56.64 | 0 | 0 |
| 1,256 | Pepper, Belle M.D. | 1:56.66 | 0 | 0 |
| 1,257 | ryceboy | 1:56.68 | 0 | 0 |
| 1,258 | Squidy_Blu | 1:56.72 | 0 | 0 |
| 1,259 | Pureception | 1:56.73 | 0 | 0 |
| 1,260 | Aertex | 1:56.74 | 0 | 0 |
| 1,260 | Psycho | 1:56.74 | 0 | 0 |
| 1,262 | Ribbitt | 1:56.75 | 0 | 0 |
| 1,262 | Unit M4-S0N | 1:56.75 | 0 | 0 |
| 1,264 | Seshiruseth | 1:56.76 | 0 | 0 |
| 1,265 | Cletus | 1:56.78 | 0 | 0 |
| 1,266 | jamaicanboy | 1:56.79 | 0 | 0 |
| 1,266 | Skeleton | 1:56.79 | 0 | 0 |
| 1,268 | OneCent_HD | 1:56.85 | 0 | 0 |
| 1,269 | Mr Kikkeli | 1:56.86 | 0 | 0 |
| 1,269 | The Biggest [REDACTED] Ogre | 1:56.86 | 0 | 0 |
| 1,269 | ShadeSlayer24 | 1:56.86 | 0 | 0 |
| 1,272 | SilverMango | 1:56.92 | 0 | 0 |
| 1,273 | M J A Y | 1:56.93 | 0 | 0 |
| 1,274 | AAAAA | 1:56.94 | 0 | 0 |
| 1,275 | Vivid Empress | 1:56.96 | 0 | 0 |
| 1,276 | MrChicago | 1:56.99 | 0 | 0 |
| 1,276 | [NR] Miyu012 | 1:56.99 | 0 | 0 |
| 1,278 | Coyotegrim | 1:57.04 | 0 | 0 |
| 1,279 | Mellow Manta | 1:57.11 | 0 | 0 |
| 1,279 | Rjiig123 | 1:57.11 | 0 | 0 |
| 1,281 | Tayko | 1:57.13 | 0 | 0 |
| 1,282 | rz zombie | 1:57.14 | 0 | 0 |
| 1,283 | Cinecko | 1:57.15 | 0 | 0 |
| 1,284 | Lémohn | 1:57.16 | 0 | 0 |
| 1,285 | Tibbs | 1:57.21 | 0 | 0 |
| 1,285 | Almbrothers | 1:57.21 | 0 | 0 |
| 1,287 | miro. | 1:57.24 | 0 | 0 |
| 1,287 | BlackOnyx | 1:57.24 | 0 | 0 |
| 1,287 | HeroicShadow | 1:57.24 | 0 | 0 |
| 1,290 | Ape Tea | 1:57.25 | 0 | 0 |
| 1,291 | MtryOutlander | 1:57.27 | 0 | 0 |
| 1,291 | Jaded Tyrant | 1:57.27 | 0 | 0 |
| 1,293 | Boucoque | 1:57.31 | 0 | 0 |
| 1,293 | totheSouth | 1:57.31 | 0 | 0 |
| 1,295 | sWilder9 | 1:57.36 | 0 | 0 |
| 1,296 | WTPuck | 1:57.37 | 0 | 0 |
| 1,297 | Brianag010 | 1:57.39 | 0 | 0 |
| 1,298 | StitchScout | 1:57.42 | 0 | 0 |
| 1,299 | sylvan | 1:57.45 | 0 | 0 |
| 1,300 | MishaFTW | 1:57.46 | 0 | 0 |
| 1,301 | gustserve | 1:57.49 | 0 | 0 |
| 1,302 | Beemur | 1:57.50 | 0 | 0 |
| 1,302 | RudiRammler | 1:57.50 | 0 | 0 |
| 1,304 | Spuddles | 1:57.51 | 0 | 0 |
| 1,305 | Tig_Togs | 1:57.53 | 0 | 0 |
| 1,306 | LeFluffySquirrel | 1:57.54 | 0 | 0 |
| 1,307 | Donkey | 1:57.55 | 0 | 0 |
| 1,308 | Eskalion | 1:57.56 | 0 | 0 |
| 1,309 | Ejotapg | 1:57.57 | 0 | 0 |
| 1,310 | Xeno146 | 1:57.58 | 0 | 0 |
| 1,310 | ossizorg | 1:57.58 | 0 | 0 |
| 1,312 | CodyLabs | 1:57.60 | 0 | 0 |
| 1,313 | Uholyn | 1:57.61 | 0 | 0 |
| 1,314 | ✯ DeathCraZy ✯ | 1:57.62 | 0 | 0 |
| 1,315 | Mambo | 1:57.64 | 0 | 0 |
| 1,316 | stewthepoo | 1:57.67 | 0 | 0 |
| 1,317 | LOLO FAK | 1:57.69 | 0 | 0 |
| 1,318 | Scycthe | 1:57.73 | 0 | 0 |
| 1,319 | krizithy | 1:57.75 | 0 | 0 |
| 1,320 | Jhojhoido | 1:57.80 | 0 | 0 |
| 1,320 | Reid | 1:57.80 | 0 | 0 |
| 1,322 | Arvorian | 1:57.86 | 0 | 0 |
| 1,322 | Orlonditi | 1:57.86 | 0 | 0 |
| 1,324 | Animax | 1:57.89 | 0 | 0 |
| 1,325 | BB | 1:57.93 | 0 | 0 |
| 1,325 | ConsumeCalcium | 1:57.93 | 0 | 0 |
| 1,327 | Tinkt1nk | 1:57.96 | 0 | 0 |
| 1,328 | Magic Bullet | 1:58.01 | 0 | 0 |
| 1,329 | Suffer | 1:58.08 | 0 | 0 |
| 1,330 | Holyschnike | 1:58.11 | 0 | 0 |
| 1,330 | Exoplanet | 1:58.11 | 0 | 0 |
| 1,330 | Traetors | 1:58.11 | 0 | 0 |
| 1,333 | Cheddar Goblin | 1:58.17 | 0 | 0 |
| 1,334 | Agent Starlight | 1:58.20 | 0 | 0 |
| 1,335 | Heavy Shamus | 1:58.22 | 0 | 0 |
| 1,336 | ZhakaZulu | 1:58.28 | 0 | 0 |
| 1,337 | lav. | 1:58.39 | 0 | 0 |
| 1,338 | Doon | 1:58.41 | 0 | 0 |
| 1,338 | F1220 | 1:58.41 | 0 | 0 |
| 1,340 | MJ12 | 1:58.42 | 0 | 0 |
| 1,341 | rusin00 | 1:58.44 | 0 | 0 |
| 1,342 | Badmojo_ | 1:58.45 | 0 | 0 |
| 1,343 | Malum Umbra | 1:58.46 | 0 | 0 |
| 1,344 | TerraHawk | 1:58.50 | 0 | 0 |
| 1,344 | Dr Axton | 1:58.50 | 0 | 0 |
| 1,344 | Captain Frames | 1:58.50 | 0 | 0 |
| 1,347 | Amniotus | 1:58.54 | 0 | 0 |
| 1,348 | tsatsae | 1:58.55 | 0 | 0 |
| 1,348 | $neaky | 1:58.55 | 0 | 0 |
| 1,350 | Derezium | 1:58.59 | 0 | 0 |
| 1,351 | IStern | 1:58.62 | 0 | 0 |
| 1,352 | TixWielder | 1:58.64 | 0 | 0 |
| 1,352 | Ventus | 1:58.64 | 0 | 0 |
| 1,354 | gossamer | 1:58.72 | 0 | 0 |
| 1,355 | Pine | 1:58.73 | 0 | 0 |
| 1,356 | ADamnDerpName | 1:58.74 | 0 | 0 |
| 1,357 | Joel Pimentel Cassua From Surrey | 1:58.76 | 0 | 0 |
| 1,358 | Anderdingus | 1:58.77 | 0 | 0 |
| 1,359 | RhinoBlindado | 1:58.78 | 0 | 0 |
| 1,359 | serkos | 1:58.78 | 0 | 0 |
| 1,361 | SwiFT aggro | 1:58.79 | 0 | 0 |
| 1,362 | Ziiryu | 1:58.80 | 0 | 0 |
| 1,362 | xander | 1:58.80 | 0 | 0 |
| 1,364 | Vimto | 1:58.82 | 0 | 0 |
| 1,365 | WiseWolf27 | 1:58.83 | 0 | 0 |
| 1,365 | Minefreak6633 | 1:58.83 | 0 | 0 |
| 1,367 | briisu | 1:58.85 | 0 | 0 |
| 1,368 | jetknife | 1:58.87 | 0 | 0 |
| 1,369 | nope | 1:58.89 | 0 | 0 |
| 1,369 | The-Lemme | 1:58.89 | 0 | 0 |
| 1,371 | Pexillien | 1:58.90 | 0 | 0 |
| 1,372 | High Voltage | 1:58.91 | 0 | 0 |
| 1,373 | Shiabe | 1:58.93 | 0 | 0 |
| 1,374 | FLUFYbluBUNYman | 1:58.98 | 0 | 0 |
| 1,374 | Dango | 1:58.98 | 0 | 0 |
| 1,376 | Nanohm The Protogen | 1:58.99 | 0 | 0 |
| 1,377 | Starfreak | 1:59.01 | 0 | 0 |
| 1,377 | ben.medlock11 | 1:59.01 | 0 | 0 |
| 1,379 | DarkShadow | 1:59.03 | 0 | 0 |
| 1,379 | XCVIBUR | 1:59.03 | 0 | 0 |
| 1,381 | Žydras | 1:59.07 | 0 | 0 |
| 1,382 | [deleted] | 1:59.10 | 0 | 0 |
| 1,383 | Decker | 1:59.11 | 0 | 0 |
| 1,384 | ~Astral Skies~ | 1:59.14 | 0 | 0 |
| 1,385 | RaPtOr987656789 | 1:59.20 | 0 | 0 |
| 1,386 | Slaycool | 1:59.21 | 0 | 0 |
| 1,386 | absurdich | 1:59.21 | 0 | 0 |
| 1,388 | Terr4 | 1:59.22 | 0 | 0 |
| 1,389 | Darklight96 | 1:59.24 | 0 | 0 |
| 1,390 | Zoombie_™ | 1:59.26 | 0 | 0 |
| 1,391 | Nagrom | 1:59.27 | 0 | 0 |
| 1,392 | Venares | 1:59.34 | 0 | 0 |
| 1,393 | do it the philZstyle | 1:59.42 | 0 | 0 |
| 1,393 | PantoGoose | 1:59.42 | 0 | 0 |
| 1,395 | Steevus | 1:59.48 | 0 | 0 |
| 1,396 | Toby | 1:59.49 | 0 | 0 |
| 1,396 | InsAnarchist | 1:59.49 | 0 | 0 |
| 1,396 | VORCHAX | 1:59.49 | 0 | 0 |
| 1,399 | DeV (.づ◡﹏◡)づ | 1:59.54 | 0 | 0 |
| 1,399 | Drarrk | 1:59.54 | 0 | 0 |
| 1,399 | Generic Oonorio | 1:59.54 | 0 | 0 |
| 1,399 | Geraldo | 1:59.54 | 0 | 0 |
| 1,403 | Meridius_IX / Lucas | 1:59.56 | 0 | 0 |
| 1,403 | JohnCorby | 1:59.56 | 0 | 0 |
| 1,405 | Carlitos | 1:59.62 | 0 | 0 |
| 1,406 | yaMatt (🐧) | 1:59.65 | 0 | 0 |
| 1,407 | Waymint | 1:59.66 | 0 | 0 |
| 1,408 | Shamus | 1:59.68 | 0 | 0 |
| 1,409 | MystykZ | 1:59.71 | 0 | 0 |
| 1,410 | Swizy | 1:59.76 | 0 | 0 |
| 1,411 | Eddie980® | 1:59.78 | 0 | 0 |
| 1,412 | TheEdIsNotAmused | 1:59.79 | 0 | 0 |
| 1,412 | CyberCobra | 1:59.79 | 0 | 0 |
| 1,414 | SecretSchizoid | 1:59.81 | 0 | 0 |
| 1,414 | FirePower64 | 1:59.81 | 0 | 0 |
| 1,414 | tonytheavenger | 1:59.81 | 0 | 0 |
| 1,417 | Yrkald | 1:59.84 | 0 | 0 |
| 1,418 | MotavianHunter | 1:59.86 | 0 | 0 |
| 1,419 | Krill | 1:59.87 | 0 | 0 |
| 1,420 | Mathias | 1:59.89 | 0 | 0 |
| 1,421 | Its_Just_Dave | 1:59.90 | 0 | 0 |
| 1,422 | Catrix | 1:59.91 | 0 | 0 |
| 1,423 | Duke333 | 1:59.92 | 0 | 0 |
| 1,424 | Arkemn | 1:59.93 | 0 | 0 |
| 1,425 | Baelz | 1:59.95 | 0 | 0 |
| 1,426 | Feed The Fishes | 1:59.96 | 0 | 0 |
| 1,427 | Heyzone | 1:59.99 | 0 | 0 |
| 1,428 | FRESH | 2:00.01 | 0 | 0 |
| 1,429 | Lucas "HyPeRXKo" | 2:00.05 | 0 | 0 |
| 1,429 | Kirby's5thDUI | 2:00.05 | 0 | 0 |
| 1,431 | TheZelen | 2:00.06 | 0 | 0 |
| 1,432 | Erebus | 2:00.09 | 0 | 0 |
| 1,433 | SEVEN | 2:00.12 | 0 | 0 |
| 1,434 | Yak-Yo! | 2:00.15 | 0 | 0 |
| 1,435 | SerapH | 2:00.17 | 0 | 0 |
| 1,436 | Khailz | 2:00.20 | 0 | 0 |
| 1,437 | Eskora | 2:00.25 | 0 | 0 |
| 1,438 | Red | 2:00.26 | 0 | 0 |
| 1,438 | Gabagool | 2:00.26 | 0 | 0 |
| 1,438 | Synchronize | 2:00.26 | 0 | 0 |
| 1,441 | Meat Cyclist | 2:00.34 | 0 | 0 |
| 1,442 | EndskendV | 2:00.35 | 0 | 0 |
| 1,443 | arcarijo486 | 2:00.37 | 0 | 0 |
| 1,444 | Samuel9248 | 2:00.46 | 0 | 0 |
| 1,444 | BerriesAndCream | 2:00.46 | 0 | 0 |
| 1,446 | DEMON | 2:00.47 | 0 | 0 |
| 1,446 | Finmorr | 2:00.47 | 0 | 0 |
| 1,448 | Bohemius | 2:00.48 | 0 | 0 |
| 1,449 | Jam | 2:00.49 | 0 | 0 |
| 1,450 | 16aroth6 | 2:00.50 | 0 | 0 |
| 1,450 | Lena The Snom Mom | 2:00.50 | 0 | 0 |
| 1,452 | Yipp | 2:00.51 | 0 | 0 |
| 1,453 | Liningcorn9 | 2:00.56 | 0 | 0 |
| 1,454 | Getty Image Egg Supreme | 2:00.57 | 0 | 0 |
| 1,455 | bread | 2:00.60 | 0 | 0 |
| 1,456 | Br0TherOfW@r [ PT ] | 2:00.64 | 0 | 0 |
| 1,456 | Hinglewingle Throatjuggler | 2:00.64 | 0 | 0 |
| 1,458 | StrongBad | 2:00.67 | 0 | 0 |
| 1,459 | Krazy8s | 2:00.75 | 0 | 0 |
| 1,460 | Vexo | davidmc971 | 2:00.84 | 0 | 0 |
| 1,461 | Hyperactive Melon | 2:00.85 | 0 | 0 |
| 1,462 | ÆX | 2:00.93 | 0 | 0 |
| 1,463 | Sulfer-The-Cλt | 2:00.94 | 0 | 0 |
| 1,463 | Vegetable Broth | 2:00.94 | 0 | 0 |
| 1,465 | Ophera | 2:01.02 | 0 | 0 |
| 1,465 | CrazyMaurice120 | 2:01.02 | 0 | 0 |
| 1,467 | AERO | 2:01.04 | 0 | 0 |
| 1,468 | Doomsee | 2:01.11 | 0 | 0 |
| 1,469 | Foxumis | 2:01.12 | 0 | 0 |
| 1,470 | Spur | 2:01.17 | 0 | 0 |
| 1,471 | blackmaester | 2:01.19 | 0 | 0 |
| 1,472 | Fugashi | 2:01.21 | 0 | 0 |
| 1,473 | arkhayem | 2:01.22 | 0 | 0 |
| 1,474 | dannii.04_ | 2:01.25 | 0 | 0 |
| 1,475 | James Boned | 2:01.27 | 0 | 0 |
| 1,476 | KoloPa | 2:01.29 | 0 | 0 |
| 1,477 | Entropy can't catch me. | 2:01.31 | 0 | 0 |
| 1,477 | Reisender | 2:01.31 | 0 | 0 |
| 1,479 | LIM JAHEY | 2:01.32 | 0 | 0 |
| 1,480 | Torja! | 2:01.33 | 0 | 0 |
| 1,481 | Espabilaa | 2:01.39 | 0 | 0 |
| 1,481 | HeliosMagi | 2:01.39 | 0 | 0 |
| 1,483 | Oshiri Tantei | 2:01.42 | 0 | 0 |
| 1,483 | Sunny | 2:01.42 | 0 | 0 |
| 1,485 | Felicia The Desert Fox | 2:01.44 | 0 | 0 |
| 1,486 | Mrlong2 | 2:01.46 | 0 | 0 |
| 1,487 | Teacup | 2:01.48 | 0 | 0 |
| 1,488 | Thallism | 2:01.49 | 0 | 0 |
| 1,489 | Natr | 2:01.50 | 0 | 0 |
| 1,490 | Misc23 | 2:01.53 | 0 | 0 |
| 1,491 | Bern-uh-erb | 2:01.59 | 0 | 0 |
| 1,492 | TomatoSlayer6 | 2:01.60 | 0 | 0 |
| 1,493 | Chanka | 2:01.61 | 0 | 0 |
| 1,494 | Banana Pel | 2:01.73 | 0 | 0 |
| 1,495 | Keskase | 2:01.74 | 0 | 0 |
| 1,496 | Winters | 2:01.78 | 0 | 0 |
| 1,497 | Spiffy | 2:01.79 | 0 | 0 |
| 1,497 | Marang | 2:01.79 | 0 | 0 |
| 1,499 | ChaosFactor | 2:01.80 | 0 | 0 |
| 1,499 | Clunt Yeastwood | 2:01.80 | 0 | 0 |
| 1,501 | The Saucerer | 2:01.83 | 0 | 0 |
| 1,502 | Cmacle | 2:01.85 | 0 | 0 |
| 1,503 | imxRaven | 2:01.96 | 0 | 0 |
| 1,503 | Astrolight | 2:01.96 | 0 | 0 |
| 1,505 | Bat Country | 2:02.00 | 0 | 0 |
| 1,506 | Naoroji | 2:02.01 | 0 | 0 |
| 1,507 | PowerLay | 2:02.04 | 0 | 0 |
| 1,508 | Finorza | 2:02.07 | 0 | 0 |
| 1,509 | // Vaffe | 2:02.08 | 0 | 0 |
| 1,509 | CrimsonFez | 2:02.08 | 0 | 0 |
| 1,509 | Hawk | 2:02.08 | 0 | 0 |
| 1,512 | Slothborn | 2:02.09 | 0 | 0 |
| 1,513 | Somehow, the Chicken | 2:02.18 | 0 | 0 |
| 1,514 | TitanSpider70 | 2:02.20 | 0 | 0 |
| 1,515 | smuo wou | 2:02.21 | 0 | 0 |
| 1,516 | MrMister | 2:02.23 | 0 | 0 |
| 1,516 | JaimmyShine | 2:02.23 | 0 | 0 |
| 1,518 | Dwayne "The Boomer" Johnsen | 2:02.24 | 0 | 0 |
| 1,519 | Sunkaaaaaaaaan | 2:02.25 | 0 | 0 |
| 1,520 | LORD IMBAX | 2:02.27 | 0 | 0 |
| 1,521 | Rukrio | 2:02.31 | 0 | 0 |
| 1,521 | Perseus | 2:02.31 | 0 | 0 |
| 1,523 | A very silly man indeed | 2:02.34 | 0 | 0 |
| 1,524 | Scrybbles | 2:02.42 | 0 | 0 |
| 1,525 | Fenn(e) | 2:02.43 | 0 | 0 |
| 1,526 | Un Boeuf | 2:02.44 | 0 | 0 |
| 1,527 | Beeyan | 2:02.49 | 0 | 0 |
| 1,528 | Mike Oxheart | 2:02.54 | 0 | 0 |
| 1,529 | Greed | 2:02.57 | 0 | 0 |
| 1,530 | LittleHappyWolf | 2:02.64 | 0 | 0 |
| 1,531 | flaniert gerne | 2:02.65 | 0 | 0 |
| 1,532 | Julian :-) | 2:02.67 | 0 | 0 |
| 1,533 | Chakkra_Skip | 2:02.70 | 0 | 0 |
| 1,534 | Bombadilla | 2:02.73 | 0 | 0 |
| 1,534 | Metalbeast75 | 2:02.73 | 0 | 0 |
| 1,536 | Сосёна | 2:02.79 | 0 | 0 |
| 1,537 | Slobbercat | 2:02.81 | 0 | 0 |
| 1,538 | Ara | 2:02.82 | 0 | 0 |
| 1,539 | Canopus Cat | 2:02.83 | 0 | 0 |
| 1,540 | Kuray | 2:02.84 | 0 | 0 |
| 1,541 | THE_ORONCO | 2:02.87 | 0 | 0 |
| 1,542 | sWiggn | 2:02.90 | 0 | 0 |
| 1,543 | artillery beetle | 2:02.91 | 0 | 0 |
| 1,544 | Ekimu | 2:02.92 | 0 | 0 |
| 1,545 | Knight | 2:02.93 | 0 | 0 |
| 1,545 | Curroth | 2:02.93 | 0 | 0 |
| 1,547 | RabbiT | 2:02.96 | 0 | 0 |
| 1,548 | Heliomachit | 2:02.97 | 0 | 0 |
| 1,549 | SunflowerTwix | 2:02.98 | 0 | 0 |
| 1,550 | B'neppe | 2:03.00 | 0 | 0 |
| 1,551 | BlvckMoonlight | 2:03.01 | 0 | 0 |
| 1,552 | Ploogus | 2:03.02 | 0 | 0 |
| 1,553 | p k i t | 2:03.08 | 0 | 0 |
| 1,553 | Delusionalx | 2:03.08 | 0 | 0 |
| 1,553 | $teveɳ | 2:03.08 | 0 | 0 |
| 1,556 | You Get One Sandwich | 2:03.13 | 0 | 0 |
| 1,557 | Relenle | 2:03.17 | 0 | 0 |
| 1,558 | Dux | 2:03.18 | 0 | 0 |
| 1,559 | Darkcrover | 2:03.19 | 0 | 0 |
| 1,559 | FreakingAwesomeWooper | 2:03.19 | 0 | 0 |
| 1,561 | Nico Aigle | 2:03.21 | 0 | 0 |
| 1,562 | 54mm7 | 2:03.25 | 0 | 0 |
| 1,563 | GaiaGaiyus | 2:03.26 | 0 | 0 |
| 1,564 | ManGoop | 2:03.27 | 0 | 0 |
| 1,565 | Reaster | 2:03.32 | 0 | 0 |
| 1,566 | Numbfeet | 2:03.33 | 0 | 0 |
| 1,566 | Cheddaru | 2:03.33 | 0 | 0 |
| 1,568 | Readek | 2:03.36 | 0 | 0 |
| 1,569 | Arikawa | 2:03.37 | 0 | 0 |
| 1,570 | Dig | 2:03.49 | 0 | 0 |
| 1,571 | Raxus | 2:03.50 | 0 | 0 |
| 1,572 | Tiege | 2:03.54 | 0 | 0 |
| 1,573 | Me an intellectual | 2:03.56 | 0 | 0 |
| 1,574 | ÜberTüb | 2:03.62 | 0 | 0 |
| 1,575 | Therio | 2:03.63 | 0 | 0 |
| 1,576 | Axoloton | 2:03.67 | 0 | 0 |
| 1,577 | CloudBirb | 2:03.70 | 0 | 0 |
| 1,578 | MittPlays | 2:03.79 | 0 | 0 |
| 1,579 | A Very Angy Opossum | 2:03.80 | 0 | 0 |
| 1,580 | polybius99 | 2:03.82 | 0 | 0 |
| 1,581 | GamerBojac | 2:03.83 | 0 | 0 |
| 1,582 | Cyberpunknerd | 2:03.88 | 0 | 0 |
| 1,583 | Zedrem | 2:03.90 | 0 | 0 |
| 1,584 | Santana | 2:03.98 | 0 | 0 |
| 1,585 | AgentSmith | 2:03.99 | 0 | 0 |
| 1,585 | SirEldricht | 2:03.99 | 0 | 0 |
| 1,587 | Helios | 2:04.00 | 0 | 0 |
| 1,587 | Mr. Chubbz | 2:04.00 | 0 | 0 |
| 1,589 | AdmiralSpiffy | 2:04.04 | 0 | 0 |
| 1,590 | The Pacific Spirit | 2:04.06 | 0 | 0 |
| 1,591 | Onur | 2:04.07 | 0 | 0 |
| 1,592 | MELOoMAN | 2:04.18 | 0 | 0 |
| 1,593 | Squishy | 2:04.23 | 0 | 0 |
| 1,594 | Cohabitor | 2:04.24 | 0 | 0 |
| 1,595 | einEtwas | 2:04.31 | 0 | 0 |
| 1,596 | Blitz Pixel | 2:04.34 | 0 | 0 |
| 1,597 | BudaChow | 2:04.37 | 0 | 0 |
| 1,597 | Katesa | 2:04.37 | 0 | 0 |
| 1,597 | Naix | 2:04.37 | 0 | 0 |
| 1,600 | [deleted] | 2:04.38 | 0 | 0 |
| 1,601 | Dragnar The Meme God | 2:04.42 | 0 | 0 |
| 1,602 | JasterPax | 2:04.46 | 0 | 0 |
| 1,603 | Aiko | 2:04.47 | 0 | 0 |
| 1,604 | HyperFlare957 | 2:04.48 | 0 | 0 |
| 1,605 | ANTI SOCIAL DEMONS CLUB | 2:04.50 | 0 | 0 |
| 1,606 | Giraffie | 2:04.53 | 0 | 0 |
| 1,607 | TheBurningFox | 2:04.56 | 0 | 0 |
| 1,607 | Melon | 2:04.56 | 0 | 0 |
| 1,609 | BedrokiV | 2:04.57 | 0 | 0 |
| 1,610 | fluffy girls in your computer | 2:04.61 | 0 | 0 |
| 1,610 | GiG | 2:04.61 | 0 | 0 |
| 1,612 | _BlueScorpion_ | 2:04.70 | 0 | 0 |
| 1,613 | SPG | 2:04.72 | 0 | 0 |
| 1,613 | BEZDARZ | 2:04.72 | 0 | 0 |
| 1,615 | DeedleFake | 2:04.73 | 0 | 0 |
| 1,616 | SnackLover | 2:04.74 | 0 | 0 |
| 1,617 | Dark Rein | 2:04.79 | 0 | 0 |
| 1,618 | Tea. English Breakfast. Hot. | 2:04.80 | 0 | 0 |
| 1,619 | JarnoZZ | 2:04.82 | 0 | 0 |
| 1,620 | a funny doggirl | 2:04.84 | 0 | 0 |
| 1,621 | s00 | 2:04.87 | 0 | 0 |
| 1,622 | ImberKnight | 2:04.89 | 0 | 0 |
| 1,622 | Dein | 2:04.89 | 0 | 0 |
| 1,624 | Neon_Shift | 2:04.91 | 0 | 0 |
| 1,625 | Gorou | 2:04.92 | 0 | 0 |
| 1,626 | badjackjack | 2:04.94 | 0 | 0 |
| 1,627 | Sharengae | 2:04.97 | 0 | 0 |
| 1,628 | Ek | 2:04.99 | 0 | 0 |
| 1,629 | DaekDragon | 2:05.00 | 0 | 0 |
| 1,629 | Nicholas | 2:05.00 | 0 | 0 |
| 1,631 | hoppersthree | 2:05.01 | 0 | 0 |
| 1,632 | racercowboy | 2:05.02 | 0 | 0 |
| 1,633 | Lysh | 2:05.04 | 0 | 0 |
| 1,633 | FENT FIEND | 2:05.04 | 0 | 0 |
| 1,635 | d'Anjou | 2:05.09 | 0 | 0 |
| 1,636 | Icicle | 2:05.15 | 0 | 0 |
| 1,637 | <pixl> 🌌 | 2:05.18 | 0 | 0 |
| 1,638 | OmniBaneSolid | 2:05.22 | 0 | 0 |
| 1,639 | yionpip | 2:05.24 | 0 | 0 |
| 1,639 | Templar tagger of holy crusade | 2:05.24 | 0 | 0 |
| 1,641 | Greywolfe | 2:05.25 | 0 | 0 |
| 1,642 | kchi | 2:05.26 | 0 | 0 |
| 1,642 | Monument576 | 2:05.26 | 0 | 0 |
| 1,644 | DriveOffTheCliff | 2:05.32 | 0 | 0 |
| 1,645 | rustihkov | 2:05.35 | 0 | 0 |
| 1,646 | Mathijs | 2:05.46 | 0 | 0 |
| 1,647 | Big Bootiecoot | 2:05.50 | 0 | 0 |
| 1,648 | Weskil | 2:05.51 | 0 | 0 |
| 1,649 | RunawayJesus | 2:05.56 | 0 | 0 |
| 1,650 | Bratalix | 2:05.57 | 0 | 0 |
| 1,651 | Salvage | 2:05.65 | 0 | 0 |
| 1,652 | ShotgunReptile | 2:05.66 | 0 | 0 |
| 1,653 | CamTheFriendly | 2:05.68 | 0 | 0 |
| 1,654 | Big Ross | 2:05.69 | 0 | 0 |
| 1,655 | froge | 2:05.83 | 0 | 0 |
| 1,655 | Whysman | 2:05.83 | 0 | 0 |
| 1,657 | Freakface | 2:05.85 | 0 | 0 |
| 1,658 | TheBoredguyyy | 2:05.89 | 0 | 0 |
| 1,658 | StephanoLight | 2:05.89 | 0 | 0 |
| 1,660 | River | 2:05.91 | 0 | 0 |
| 1,661 | dragnor | 2:05.92 | 0 | 0 |
| 1,662 | Lapi | 2:05.93 | 0 | 0 |
| 1,663 | Lord Defecate | 2:05.94 | 0 | 0 |
| 1,663 | HiiragiShinoa | 2:05.94 | 0 | 0 |
| 1,665 | Finch | 2:05.96 | 0 | 0 |
| 1,666 | Traxun | 2:05.97 | 0 | 0 |
| 1,667 | VariousBlazertazer | 2:06.00 | 0 | 0 |
| 1,668 | don.mario | 2:06.03 | 0 | 0 |
| 1,669 | silverheartx_ | 2:06.04 | 0 | 0 |
| 1,670 | Bun Bun | 2:06.08 | 0 | 0 |
| 1,671 | FifthWhammy | 2:06.11 | 0 | 0 |
| 1,672 | Bark Obama | 2:06.16 | 0 | 0 |
| 1,673 | WolfGamesHD | 2:06.17 | 0 | 0 |
| 1,674 | Skuzzles | 2:06.24 | 0 | 0 |
| 1,674 | Zab | 2:06.24 | 0 | 0 |
| 1,676 | NINE | 2:06.28 | 0 | 0 |
| 1,677 | Toasty534 | 2:06.32 | 0 | 0 |
| 1,678 | Shroom | 2:06.37 | 0 | 0 |
| 1,679 | Calcarious | 2:06.46 | 0 | 0 |
| 1,680 | singingsteel | 2:06.48 | 0 | 0 |
| 1,681 | Lemonist | 2:06.51 | 0 | 0 |
| 1,682 | Sir Boomalot | 2:06.54 | 0 | 0 |
| 1,683 | Raynland McNuggets | 2:06.57 | 0 | 0 |
| 1,684 | Poptarticus | 2:06.58 | 0 | 0 |
| 1,685 | Z0ych | 2:06.60 | 0 | 0 |
| 1,686 | HARBINGER | 2:06.62 | 0 | 0 |
| 1,687 | [deleted] | 2:06.68 | 0 | 0 |
| 1,688 | fightman | 2:06.74 | 0 | 0 |
| 1,689 | Asbestos | 2:06.75 | 0 | 0 |
| 1,690 | DukeofLeet | 2:06.76 | 0 | 0 |
| 1,691 | alextapfish | 2:06.80 | 0 | 0 |
| 1,692 | CasualCanuck | 2:06.83 | 0 | 0 |
| 1,693 | Berto | 2:06.84 | 0 | 0 |
| 1,694 | Psychoblade[187] | 2:06.88 | 0 | 0 |
| 1,694 | Cthulhu | 2:06.88 | 0 | 0 |
| 1,696 | EletroZé | 2:06.90 | 0 | 0 |
| 1,697 | MR.CH33ZZY 63 | 2:06.91 | 0 | 0 |
| 1,698 | BigFatRock | 2:06.92 | 0 | 0 |
| 1,699 | The Anti-Bloon | 2:06.95 | 0 | 0 |
| 1,700 | Token White Gir | 2:06.97 | 0 | 0 |
| 1,701 | Jack's Soaked Sandwich | 2:07.00 | 0 | 0 |
| 1,702 | wheelov | 2:07.03 | 0 | 0 |
| 1,702 | Depschy | 2:07.03 | 0 | 0 |
| 1,704 | Turbo | 2:07.05 | 0 | 0 |
| 1,705 | ProffesorInsidious | 2:07.09 | 0 | 0 |
| 1,706 | Microkiller | 2:07.11 | 0 | 0 |
| 1,707 | ✯Radek | 2:07.12 | 0 | 0 |
| 1,708 | Zack Flarestar | 2:07.29 | 0 | 0 |
| 1,709 | DarkestDaydream | 2:07.36 | 0 | 0 |
| 1,710 | femptocrisis | 2:07.40 | 0 | 0 |
| 1,711 | Spaghetti | 2:07.43 | 0 | 0 |
| 1,712 | Jeffrey | 2:07.45 | 0 | 0 |
| 1,713 | ⛤T̵R̸I̶X̷X̷X̷⛤ | 2:07.52 | 0 | 0 |
| 1,714 | kwis | 2:07.54 | 0 | 0 |
| 1,715 | Anerix (Paradox) Cormin Quanadol | 2:07.58 | 0 | 0 |
| 1,716 | LuigiNtbknss | 2:07.71 | 0 | 0 |
| 1,717 | Squalo | 2:07.72 | 0 | 0 |
| 1,717 | Regera | 2:07.72 | 0 | 0 |
| 1,719 | Magovitch | 2:07.73 | 0 | 0 |
| 1,720 | Hayaweh | 2:07.75 | 0 | 0 |
| 1,721 | Plex | 2:07.86 | 0 | 0 |
| 1,721 | Kashuzu | 2:07.86 | 0 | 0 |
| 1,723 | FlatChestEnthusiast | 2:07.87 | 0 | 0 |
| 1,724 | Rei | 2:07.91 | 0 | 0 |
| 1,725 | Crazyos | 2:07.92 | 0 | 0 |
| 1,726 | Rae Static | 2:07.93 | 0 | 0 |
| 1,727 | Bubwubster | 2:07.94 | 0 | 0 |
| 1,728 | Recapes | 2:07.97 | 0 | 0 |
| 1,728 | Kouldrek | 2:07.97 | 0 | 0 |
| 1,730 | Maugan Ra | 2:08.03 | 0 | 0 |
| 1,731 | AniseedWolf | 2:08.09 | 0 | 0 |
| 1,732 | Splat | 2:08.12 | 0 | 0 |
| 1,733 | Mythic | 2:08.15 | 0 | 0 |
| 1,734 | 🌺 CallMeAshley 🌺 | 2:08.34 | 0 | 0 |
| 1,735 | RadioactivePepsi | 2:08.35 | 0 | 0 |
| 1,736 | Astral107 | 2:08.36 | 0 | 0 |
| 1,737 | Zerzuskan | 2:08.45 | 0 | 0 |
| 1,738 | Blade | 2:08.48 | 0 | 0 |
| 1,739 | 989989272c | 2:08.50 | 0 | 0 |
| 1,740 | [deleted] | 2:08.67 | 0 | 0 |
| 1,741 | YoloMoth | 2:08.71 | 0 | 0 |
| 1,742 | GEESMAN | 2:08.83 | 0 | 0 |
| 1,743 | Grebwalker | 2:08.98 | 0 | 0 |
| 1,744 | Mr.Derp | 2:09.02 | 0 | 0 |
| 1,745 | Gdj 24 | 2:09.05 | 0 | 0 |
| 1,746 | biski! | 2:09.08 | 0 | 0 |
| 1,747 | mistic100 | 2:09.10 | 0 | 0 |
| 1,747 | 50 | 2:09.10 | 0 | 0 |
| 1,749 | Shakawah | 2:09.11 | 0 | 0 |
| 1,750 | waztarr | 2:09.12 | 0 | 0 |
| 1,751 | nsɐʞkasu | 2:09.18 | 0 | 0 |
| 1,752 | Identity_Crysys | 2:09.19 | 0 | 0 |
| 1,753 | Qiqi | 2:09.23 | 0 | 0 |
| 1,754 | FRX | 2:09.24 | 0 | 0 |
| 1,754 | Damia | 2:09.24 | 0 | 0 |
| 1,756 | Leo Cantus | 2:09.25 | 0 | 0 |
| 1,757 | Zaz | 2:09.26 | 0 | 0 |
| 1,758 | Darknorwood | 2:09.30 | 0 | 0 |
| 1,759 | GentleHawkes | 2:09.31 | 0 | 0 |
| 1,759 | iamnotactuallyarealplayer | 2:09.31 | 0 | 0 |
| 1,761 | VC42 | 2:09.33 | 0 | 0 |
| 1,762 | iron_tarkington.ttv | 2:09.46 | 0 | 0 |
| 1,763 | Slamyx | 2:09.67 | 0 | 0 |
| 1,764 | Ich | 2:09.71 | 0 | 0 |
| 1,765 | SharpPrincipalDiffuseFundamental | 2:09.75 | 0 | 0 |
| 1,766 | Kunya The Scoot | 2:09.77 | 0 | 0 |
| 1,767 | Fushiggy | 2:09.80 | 0 | 0 |
| 1,768 | Matheus Pereira | 2:09.83 | 0 | 0 |
| 1,769 | Logo$(ru) | 2:09.92 | 0 | 0 |
| 1,770 | Ruinoterapevt | 2:09.94 | 0 | 0 |
| 1,771 | SiNiSTAR | 2:09.95 | 0 | 0 |
| 1,772 | Battle00333 | 2:10.03 | 0 | 0 |
| 1,773 | SillySean | 2:10.04 | 0 | 0 |
| 1,774 | Quadratic Formula | 2:10.07 | 0 | 0 |
| 1,774 | Soraho | 2:10.07 | 0 | 0 |
| 1,776 | Darkness | 2:10.08 | 0 | 0 |
| 1,777 | Dommy | 2:10.13 | 0 | 0 |
| 1,778 | Canoel | 2:10.14 | 0 | 0 |
| 1,779 | mirroryubel | 2:10.19 | 0 | 0 |
| 1,780 | Count Spatula | 2:10.22 | 0 | 0 |
| 1,781 | PumPum | 2:10.23 | 0 | 0 |
| 1,782 | GoldMoney237 | 2:10.27 | 0 | 0 |
| 1,783 | 25 минут кайфа | 2:10.30 | 0 | 0 |
| 1,784 | Anvilanche | 2:10.32 | 0 | 0 |
| 1,785 | Todd Baxter | 2:10.42 | 0 | 0 |
| 1,786 | Auszman | 2:10.55 | 0 | 0 |
| 1,787 | ReadWriteError | 2:10.58 | 0 | 0 |
| 1,788 | Your Fav Baka | 2:10.66 | 0 | 0 |
| 1,789 | echance01 | 2:10.78 | 0 | 0 |
| 1,790 | Uldergoff | 2:10.82 | 0 | 0 |
| 1,791 | Seren | 2:10.88 | 0 | 0 |
| 1,792 | Astra Ashford | 2:10.94 | 0 | 0 |
| 1,793 | WarpedEternia | 2:11.00 | 0 | 0 |
| 1,794 | Dominion | 2:11.05 | 0 | 0 |
| 1,795 | BILLY MAYS: YOUR OXICLEAN DEALER | 2:11.15 | 0 | 0 |
| 1,796 | angerthosenear | 2:11.18 | 0 | 0 |
| 1,797 | キタ一一(゚∀゚)一一!! | 2:11.19 | 0 | 0 |
| 1,798 | Hovex the Spider | 2:11.24 | 0 | 0 |
| 1,799 | fishboyr_d | 2:11.30 | 0 | 0 |
| 1,800 | Knight Hound | 2:11.31 | 0 | 0 |
| 1,801 | potionblue | 2:11.40 | 0 | 0 |
| 1,802 | Doorcrusher | 2:11.44 | 0 | 0 |
| 1,802 | fanwar3 | 2:11.44 | 0 | 0 |
| 1,804 | Big Mike FR FR | 2:11.46 | 0 | 0 |
| 1,805 | Asclepius | 2:11.47 | 0 | 0 |
| 1,806 | TwinkTamer | 2:11.54 | 0 | 0 |
| 1,807 | 문경왕개미 | 2:11.59 | 0 | 0 |
| 1,808 | Limola | 2:11.61 | 0 | 0 |
| 1,809 | Scarlet | 2:11.63 | 0 | 0 |
| 1,810 | Doomey | 2:11.64 | 0 | 0 |
| 1,810 | generally incompetent | 2:11.64 | 0 | 0 |
| 1,812 | Mojumbo | 2:11.71 | 0 | 0 |
| 1,813 | Ostap Bender | 2:11.73 | 0 | 0 |
| 1,814 | The Professor of Dank Memes | 2:11.87 | 0 | 0 |
| 1,815 | Ensk | 2:11.88 | 0 | 0 |
| 1,816 | Sam Stranding's Dad | 2:12.00 | 0 | 0 |
| 1,817 | Minecraft27Xbox | 2:12.11 | 0 | 0 |
| 1,818 | Rybot | 2:12.14 | 0 | 0 |
| 1,819 | Random-Person-507 | 2:12.16 | 0 | 0 |
| 1,820 | SuiSidalkittEn | 2:12.21 | 0 | 0 |
| 1,821 | Menelwen | 2:12.22 | 0 | 0 |
| 1,822 | LunarRay | 2:12.24 | 0 | 0 |
| 1,823 | EUNoriko | 2:12.25 | 0 | 0 |
| 1,824 | endertrot | 2:12.26 | 0 | 0 |
| 1,825 | The Metric System | 2:12.29 | 0 | 0 |
| 1,825 | Sunchipp Games | 2:12.29 | 0 | 0 |
| 1,827 | Pteroborne | 2:12.30 | 0 | 0 |
| 1,828 | Friar Buck | 2:12.35 | 0 | 0 |
| 1,828 | Coconut | 2:12.35 | 0 | 0 |
| 1,830 | EP1CZ0D | 2:12.37 | 0 | 0 |
| 1,831 | wompwomp | 2:12.43 | 0 | 0 |
| 1,832 | Akazs | 2:12.46 | 0 | 0 |
| 1,833 | The [SVK] | 2:12.49 | 0 | 0 |
| 1,834 | Giraffe | 2:12.52 | 0 | 0 |
| 1,835 | DamnedDeyvid | 2:12.66 | 0 | 0 |
| 1,836 | Galaxic | 2:12.88 | 0 | 0 |
| 1,837 | Petuga | 2:12.89 | 0 | 0 |
| 1,838 | Crow | 2:12.93 | 0 | 0 |
| 1,839 | Zeo | 2:12.94 | 0 | 0 |
| 1,840 | Giant From The East | 2:12.98 | 0 | 0 |
| 1,841 | Thela Hun Ginjeet | 2:13.11 | 0 | 0 |
| 1,841 | cheif22 | 2:13.11 | 0 | 0 |
| 1,841 | Echo | 2:13.11 | 0 | 0 |
| 1,844 | svaged | 2:13.18 | 0 | 0 |
| 1,845 | FaiZeN | 2:13.22 | 0 | 0 |
| 1,845 | PatTheHyruler | 2:13.22 | 0 | 0 |
| 1,847 | TonyTFK | 2:13.23 | 0 | 0 |
| 1,848 | Mejartion | 2:13.25 | 0 | 0 |
| 1,849 | Corey | 2:13.27 | 0 | 0 |
| 1,850 | BesRezen | 2:13.32 | 0 | 0 |
| 1,850 | Hollow_sorroW | 2:13.32 | 0 | 0 |
| 1,852 | ghosta_rica | 2:13.37 | 0 | 0 |
| 1,853 | DraconicBurners | 2:13.38 | 0 | 0 |
| 1,854 | Isabella | 2:13.44 | 0 | 0 |
| 1,855 | BluApostrophe | 2:13.47 | 0 | 0 |
| 1,856 | Za How™ | 2:13.48 | 0 | 0 |
| 1,857 | guh?? | 2:13.52 | 0 | 0 |
| 1,858 | BeeVeelutions | 2:13.63 | 0 | 0 |
| 1,859 | Jakrabbit | 2:13.71 | 0 | 0 |
| 1,860 | pox | 2:13.74 | 0 | 0 |
| 1,861 | Gravy Dumpster | 2:13.80 | 0 | 0 |
| 1,862 | JC | 2:13.95 | 0 | 0 |
| 1,862 | TaoSen | 2:13.95 | 0 | 0 |
| 1,864 | Glófaxi | 2:13.98 | 0 | 0 |
| 1,864 | lord commander | 2:13.98 | 0 | 0 |
| 1,866 | Jeff The NERD | 2:14.04 | 0 | 0 |
| 1,867 | The Law | 2:14.09 | 0 | 0 |
| 1,868 | Darth Sand | 2:14.13 | 0 | 0 |
| 1,869 | Afromation | 2:14.15 | 0 | 0 |
| 1,870 | Flud | 2:14.18 | 0 | 0 |
| 1,871 | #KallorDidNothingWrong | 2:14.21 | 0 | 0 |
| 1,872 | Trew Domko | 2:14.27 | 0 | 0 |
| 1,873 | Beevo | 2:14.28 | 0 | 0 |
| 1,874 | Waterlemon | 2:14.33 | 0 | 0 |
| 1,875 | HorseOfCourse | 2:14.47 | 0 | 0 |
| 1,876 | leather n studs bracelet | 2:14.49 | 0 | 0 |
| 1,877 | Umbrasbane | 2:14.53 | 0 | 0 |
| 1,878 | Kama | 2:14.55 | 0 | 0 |
| 1,879 | djbdrummer | 2:14.56 | 0 | 0 |
| 1,880 | キング Raff 様 | 2:14.57 | 0 | 0 |
| 1,881 | Phenix85 | 2:14.73 | 0 | 0 |
| 1,882 | holofoil | 2:14.83 | 0 | 0 |
| 1,883 | JestersFear | 2:14.86 | 0 | 0 |
| 1,884 | Spades | 2:14.87 | 0 | 0 |
| 1,885 | Noventami | 2:14.88 | 0 | 0 |
| 1,886 | Apache | 2:14.96 | 0 | 0 |
| 1,887 | Agent Tangerine | 2:15.02 | 0 | 0 |
| 1,888 | Braoklii | 2:15.15 | 0 | 0 |
| 1,889 | Marrs | 2:15.29 | 0 | 0 |
| 1,890 | Aventurain | 2:15.33 | 0 | 0 |
| 1,891 | SnackQuest | 2:15.36 | 0 | 0 |
| 1,891 | Covertactician | 2:15.36 | 0 | 0 |
| 1,893 | Holly | 2:15.51 | 0 | 0 |
| 1,893 | kuvni | 2:15.51 | 0 | 0 |
| 1,895 | MPR03a | 2:15.56 | 0 | 0 |
| 1,895 | st_jeezy | 2:15.56 | 0 | 0 |
| 1,897 | the_monotonist | 2:15.57 | 0 | 0 |
| 1,898 | SharoffKot | 2:15.58 | 0 | 0 |
| 1,899 | mikayla | 2:15.63 | 0 | 0 |
| 1,900 | Rafildz | 2:15.65 | 0 | 0 |
| 1,901 | Gimbler | 2:15.66 | 0 | 0 |
| 1,902 | Seschbee | 2:15.68 | 0 | 0 |
| 1,903 | Whales | 2:15.76 | 0 | 0 |
| 1,904 | Audity | 2:15.77 | 0 | 0 |
| 1,905 | Schranzinator | 2:15.79 | 0 | 0 |
| 1,906 | gabbeer | 2:15.81 | 0 | 0 |
| 1,907 | Foxy Brownie | 2:15.88 | 0 | 0 |
| 1,908 | schaboop | 2:15.90 | 0 | 0 |
| 1,908 | Vithor14 | 2:15.90 | 0 | 0 |
| 1,910 | Axien | 2:15.95 | 0 | 0 |
| 1,911 | Vinnie Scumbolli | 2:15.97 | 0 | 0 |
| 1,911 | Breno_SO | 2:15.97 | 0 | 0 |
| 1,913 | Adess | 2:16.10 | 0 | 0 |
| 1,914 | Pkaradactyl | 2:16.11 | 0 | 0 |
| 1,915 | Quadrigon | 2:16.26 | 0 | 0 |
| 1,916 | Velleri | 2:16.32 | 0 | 0 |
| 1,917 | Utsunomiya | 2:16.33 | 0 | 0 |
| 1,918 | Inky | 2:16.34 | 0 | 0 |
| 1,919 | Hisoka02 | 2:16.37 | 0 | 0 |
| 1,920 | Gammeta | 2:16.41 | 0 | 0 |
| 1,921 | jliebig | 2:16.50 | 0 | 0 |
| 1,922 | solar_roller | 2:16.52 | 0 | 0 |
| 1,923 | Turavis | 2:16.54 | 0 | 0 |
| 1,924 | Critical WEASEL | 2:16.61 | 0 | 0 |
| 1,925 | Insane Burger | 2:16.65 | 0 | 0 |
| 1,925 | rilelyscastle | 2:16.65 | 0 | 0 |
| 1,927 | alex | 2:16.66 | 0 | 0 |
| 1,928 | Admiral Pond Scum | 2:16.69 | 0 | 0 |
| 1,928 | Sgt_Snowcone | 2:16.69 | 0 | 0 |
| 1,930 | Shyny Magikarp 🔸 | 2:16.71 | 0 | 0 |
| 1,931 | Xela | 2:16.84 | 0 | 0 |
| 1,932 | mos | 2:16.90 | 0 | 0 |
| 1,932 | VectorWuffy | 2:16.90 | 0 | 0 |
| 1,934 | Swatowsky | 2:16.93 | 0 | 0 |
| 1,935 | Acias | 2:16.96 | 0 | 0 |
| 1,936 | nightclubpositive | 2:17.00 | 0 | 0 |
| 1,937 | Lowcashbro | 2:17.06 | 0 | 0 |
| 1,938 | |CoD| Shadow | 2:17.17 | 0 | 0 |
| 1,939 | Sibsen | 2:17.18 | 0 | 0 |
| 1,940 | JustAlpher | 2:17.19 | 0 | 0 |
| 1,941 | B-VOL | 2:17.21 | 0 | 0 |
| 1,942 | Vendall | 2:17.22 | 0 | 0 |
| 1,943 | GAIN.GG | Cyber_Spoonman | 2:17.33 | 0 | 0 |
| 1,944 | Talk Shit Get Hit | 2:17.59 | 0 | 0 |
| 1,945 | Loreckine | 2:17.60 | 0 | 0 |
| 1,946 | A Determined Arsonist | 2:17.63 | 0 | 0 |
| 1,947 | Takosnouille | 2:17.81 | 0 | 0 |
| 1,948 | Random | 2:17.82 | 0 | 0 |
| 1,949 | Rogue5132 | 2:17.84 | 0 | 0 |
| 1,950 | tigerchef123 | 2:17.91 | 0 | 0 |
| 1,951 | johnsman | 2:17.95 | 0 | 0 |
| 1,952 | Not_Izaah | 2:17.99 | 0 | 0 |
| 1,952 | sendthefish | 2:17.99 | 0 | 0 |
| 1,954 | ForzaGaliza | 2:18.04 | 0 | 0 |
| 1,955 | Mr. Bird | 2:18.11 | 0 | 0 |
| 1,956 | Satoshi | 2:18.12 | 0 | 0 |
| 1,956 | Apwou32 | 2:18.12 | 0 | 0 |
| 1,958 | Mama Luigi | 2:18.29 | 0 | 0 |
| 1,959 | HoomanBeans | 2:18.36 | 0 | 0 |
| 1,959 | little miss steak | 2:18.36 | 0 | 0 |
| 1,961 | félix | 2:18.37 | 0 | 0 |
| 1,962 | Carlos "DOOU" Menem | 2:18.44 | 0 | 0 |
| 1,962 | Calebsbutt | 2:18.44 | 0 | 0 |
| 1,964 | SkyLightLilFox | 2:18.47 | 0 | 0 |
| 1,965 | Hamster | 2:18.49 | 0 | 0 |
| 1,966 | Tricore15 | 2:18.56 | 0 | 0 |
| 1,967 | O QUEEEEEEEEEEEEEEEEE??? | 2:18.58 | 0 | 0 |
| 1,968 | GenericTrash™ | 2:18.63 | 0 | 0 |
| 1,969 | Utrilro | 2:18.64 | 0 | 0 |
| 1,970 | Matthew Murray | 2:18.70 | 0 | 0 |
| 1,971 | Synnøve | 2:18.71 | 0 | 0 |
| 1,972 | Prering | 2:18.76 | 0 | 0 |
| 1,973 | warmainiac | 2:18.78 | 0 | 0 |
| 1,974 | Super Smooth Groovy Gravy | 2:18.85 | 0 | 0 |
| 1,975 | WSBat | 2:18.96 | 0 | 0 |
| 1,976 | Toby Ferrian | 2:18.98 | 0 | 0 |
| 1,977 | sevenofnone | 2:19.06 | 0 | 0 |
| 1,978 | conduit | 2:19.11 | 0 | 0 |
| 1,979 | Tagor12 | 2:19.12 | 0 | 0 |
| 1,980 | Just Raj | 2:19.30 | 0 | 0 |
| 1,981 | Cynic | 2:19.37 | 0 | 0 |
| 1,982 | wolff440 | 2:19.41 | 0 | 0 |
| 1,983 | Sylvia Yuki | 2:19.53 | 0 | 0 |
| 1,984 | Arbinator | 2:19.58 | 0 | 0 |
| 1,985 | Sealwheeler9 | 2:19.63 | 0 | 0 |
| 1,986 | Xavi Wheels | 2:19.70 | 0 | 0 |
| 1,987 | Haivu | 2:19.71 | 0 | 0 |
| 1,988 | Шоколадка:) | 2:19.74 | 0 | 0 |
| 1,989 | Imp Ossible | 2:19.78 | 0 | 0 |
| 1,990 | Taro | 2:19.83 | 0 | 0 |
| 1,991 | JuneBei | 2:19.86 | 0 | 0 |
| 1,992 | RABOAN | 2:19.96 | 0 | 0 |
| 1,993 | Horacio Rodriguez Larreta Jr. | 2:19.98 | 0 | 0 |
| 1,994 | doordragon | 2:20.00 | 0 | 0 |
| 1,995 | Das Mottul | 2:20.05 | 0 | 0 |
| 1,996 | Kappacat | 2:20.08 | 0 | 0 |
| 1,997 | meberbs | 2:20.10 | 0 | 0 |
| 1,998 | Eyen | 2:20.24 | 0 | 0 |
| 1,999 | Hidden Squid | 2:20.32 | 0 | 0 |
| 2,000 | NeonVixie | 2:20.34 | 0 | 0 |
| 2,001 | mordo | 2:20.35 | 0 | 0 |
| 2,002 | Prism Refract | 2:20.47 | 0 | 0 |
| 2,003 | xXSec_Saven66duXx | 2:20.55 | 0 | 0 |
| 2,004 | RexTin | 2:20.56 | 0 | 0 |
| 2,005 | Earthnuker | 2:20.57 | 0 | 0 |
| 2,006 | K9 | 2:20.70 | 0 | 0 |
| 2,006 | Vape Nation | 2:20.70 | 0 | 0 |
| 2,008 | Beastrolami | 2:20.72 | 0 | 0 |
| 2,009 | Meep | 2:20.73 | 0 | 0 |
| 2,010 | DJnox34 | 2:20.79 | 0 | 0 |
| 2,011 | MrTi | 2:20.90 | 0 | 0 |
| 2,012 | fedex | 2:21.10 | 0 | 0 |
| 2,013 | Chated | 2:21.11 | 0 | 0 |
| 2,014 | cuts | 2:21.16 | 0 | 0 |
| 2,015 | Necão | 2:21.19 | 0 | 0 |
| 2,016 | Konomi☆Nanasaki | 2:21.25 | 0 | 0 |
| 2,017 | Mired | 2:21.27 | 0 | 0 |
| 2,018 | Wizard the Wizard | 2:21.29 | 0 | 0 |
| 2,019 | Static the Pet | 2:21.47 | 0 | 0 |
| 2,020 | ERIC STRIKE INCOMING | 2:21.55 | 0 | 0 |
| 2,021 | FILIN | 2:21.62 | 0 | 0 |
| 2,022 | Miss Rizzle | 2:21.66 | 0 | 0 |
| 2,023 | Cyrus the Great | 2:21.78 | 0 | 0 |
| 2,023 | AshkoreCrowl | 2:21.78 | 0 | 0 |
| 2,025 | KingSpammerNerd | 2:21.94 | 0 | 0 |
| 2,026 | TerribleClaws | 2:21.99 | 0 | 0 |
| 2,027 | Nekat_Eman ||[X]||| | 2:22.12 | 0 | 0 |
| 2,028 | shroomologist | 2:22.13 | 0 | 0 |
| 2,029 | MrUnbecoming | 2:22.16 | 0 | 0 |
| 2,030 | Ted | 2:22.18 | 0 | 0 |
| 2,031 | Blushy Wushy | 2:22.19 | 0 | 0 |
| 2,032 | JB Henry | 2:22.26 | 0 | 0 |
| 2,033 | Grungus | 2:22.28 | 0 | 0 |
| 2,034 | GigaSpin | 2:22.37 | 0 | 0 |
| 2,035 | The Stig | 2:22.38 | 0 | 0 |
| 2,036 | ZexMaxwell | 2:22.43 | 0 | 0 |
| 2,037 | The Mighty Spoon™ | 2:22.50 | 0 | 0 |
| 2,038 | DarkSide | 2:22.51 | 0 | 0 |
| 2,039 | DraidenWolf | 2:22.56 | 0 | 0 |
| 2,040 | Big Boi Bazunga | 2:22.68 | 0 | 0 |
| 2,041 | ARC Memphis 1 | 2:22.75 | 0 | 0 |
| 2,042 | Papiergnomio_from_hell | 2:22.89 | 0 | 0 |
| 2,043 | Drifting316 | 2:23.13 | 0 | 0 |
| 2,044 | OGJOHNNYBOBSON | 2:23.24 | 0 | 0 |
| 2,045 | Alexkurts | 2:23.30 | 0 | 0 |
| 2,046 | Fettuccini | 2:23.34 | 0 | 0 |
| 2,047 | [BIT] Iroden | 2:23.47 | 0 | 0 |
| 2,048 | Dirtiestbag | 2:23.48 | 0 | 0 |
| 2,049 | Junipop | 2:23.57 | 0 | 0 |
| 2,050 | ifreg0 | 2:23.70 | 0 | 0 |
| 2,051 | Röschti | 2:23.71 | 0 | 0 |
| 2,052 | brick | 2:23.72 | 0 | 0 |
| 2,053 | cubanito778 | 2:23.78 | 0 | 0 |
| 2,054 | Amored Dragon | 2:23.90 | 0 | 0 |
| 2,055 | byPuma | 2:23.95 | 0 | 0 |
| 2,056 | Summer | 2:23.97 | 0 | 0 |
| 2,057 | Sir.Cabbage | 2:24.06 | 0 | 0 |
| 2,058 | cas8002 | 2:24.08 | 0 | 0 |
| 2,059 | jrwawak64 | 2:24.21 | 0 | 0 |
| 2,060 | wke | 2:24.41 | 0 | 0 |
| 2,061 | That Thing | 2:24.64 | 0 | 0 |
| 2,062 | FractalBacon | 2:24.86 | 0 | 0 |
| 2,063 | Cactus Cat | 2:24.90 | 0 | 0 |
| 2,064 | destiny.fate22 | 2:24.96 | 0 | 0 |
| 2,065 | Kandarihu | 2:25.02 | 0 | 0 |
| 2,066 | DarkEnforcer | 2:25.15 | 0 | 0 |
| 2,067 | NightxBandit | 2:25.17 | 0 | 0 |
| 2,068 | Mrmerfeo4 | 2:25.21 | 0 | 0 |
| 2,069 | trooper | 2:25.47 | 0 | 0 |
| 2,070 | Dipironald | 2:25.60 | 0 | 0 |
| 2,071 | Expired | 2:25.63 | 0 | 0 |
| 2,072 | echoesguideme | 2:25.88 | 0 | 0 |
| 2,073 | vil2 | 2:25.89 | 0 | 0 |
| 2,074 | ✂👌☜✌☼✂ | 2:25.98 | 0 | 0 |
| 2,074 | GoldenDragon314 | 2:25.98 | 0 | 0 |
| 2,076 | Ryowulf768 | 2:26.08 | 0 | 0 |
| 2,077 | MII | 2:26.12 | 0 | 0 |
| 2,077 | adobesmurf | 2:26.12 | 0 | 0 |
| 2,079 | Bulka | 2:26.17 | 0 | 0 |
| 2,080 | Domorrow | 2:26.26 | 0 | 0 |
| 2,081 | ShotgunSalad | 2:26.30 | 0 | 0 |
| 2,082 | Cookie Dealer | 2:26.53 | 0 | 0 |
| 2,083 | le0n | 2:26.55 | 0 | 0 |
| 2,084 | Mystibule - TLS | 2:26.66 | 0 | 0 |
| 2,085 | Ruleworld | 2:26.81 | 0 | 0 |
| 2,086 | 2ndBillingCycle | 2:26.91 | 0 | 0 |
| 2,087 | Wikk | 2:27.18 | 0 | 0 |
| 2,088 | ★ Angel♥~ ★ | 2:27.19 | 0 | 0 |
| 2,089 | Acedia | 2:27.39 | 0 | 0 |
| 2,090 | Lunchism | 2:27.45 | 0 | 0 |
| 2,091 | Commander Victory | 2:27.46 | 0 | 0 |
| 2,091 | Apple | 2:27.46 | 0 | 0 |
| 2,093 | Verst | 2:27.68 | 0 | 0 |
| 2,094 | Harue Kuma | 2:27.80 | 0 | 0 |
| 2,095 | beamerkilling | 2:27.89 | 0 | 0 |
| 2,096 | Niko | 2:27.92 | 0 | 0 |
| 2,097 | Sky Captain | 2:28.01 | 0 | 0 |
| 2,098 | gexbond | 2:28.05 | 0 | 0 |
| 2,099 | Symon | 2:28.12 | 0 | 0 |
| 2,100 | Kowsky | 2:28.13 | 0 | 0 |
| 2,101 | Emazeco | 2:28.26 | 0 | 0 |
| 2,102 | Faize | 2:28.32 | 0 | 0 |
| 2,103 | horse46 | 2:28.34 | 0 | 0 |
| 2,104 | HotGamer1995 | 2:28.35 | 0 | 0 |
| 2,105 | OriOri | 2:28.38 | 0 | 0 |
| 2,106 | Gregus8344 | 2:28.39 | 0 | 0 |
| 2,107 | N_Thinker | 2:28.41 | 0 | 0 |
| 2,108 | eMoss55 | 2:28.42 | 0 | 0 |
| 2,109 | Chrisesus | 2:28.70 | 0 | 0 |
| 2,110 | Devil Faker | 2:28.79 | 0 | 0 |
| 2,111 | Archi | 2:28.82 | 0 | 0 |
| 2,112 | .present; | 2:28.84 | 0 | 0 |
| 2,113 | NonamewouldFit! | 2:28.90 | 0 | 0 |
| 2,114 | NullVoid | 2:29.03 | 0 | 0 |
| 2,115 | Damionf | 2:29.20 | 0 | 0 |
| 2,116 | Malty | 2:29.32 | 0 | 0 |
| 2,117 | Beef | 2:29.36 | 0 | 0 |
| 2,118 | Soraishollow | 2:29.38 | 0 | 0 |
| 2,119 | Angelking14 | 2:29.39 | 0 | 0 |
| 2,120 | ThadeusBK | 2:29.44 | 0 | 0 |
| 2,121 | Gafy | 2:29.55 | 0 | 0 |
| 2,122 | BioPaw | 2:29.60 | 0 | 0 |
| 2,123 | Booler | 2:29.77 | 0 | 0 |
| 2,124 | 𝘍𝘙 | 2:29.96 | 0 | 0 |
| 2,125 | XeeNon | 2:30.14 | 0 | 0 |
| 2,126 | Linovsky | 2:30.16 | 0 | 0 |
| 2,127 | wontrice | 2:30.19 | 0 | 0 |
| 2,128 | Lunas | 2:30.32 | 0 | 0 |
| 2,129 | JBomb1124 | 2:30.38 | 0 | 0 |
| 2,130 | A_random | 2:30.48 | 0 | 0 |
| 2,131 | The Brightest Star | 2:30.51 | 0 | 0 |
| 2,132 | Chaks | 2:30.60 | 0 | 0 |
| 2,133 | Zwick The Editor | 2:30.79 | 0 | 0 |
| 2,133 | Bunker475 | 2:30.79 | 0 | 0 |
| 2,135 | MaruPig | 2:30.94 | 0 | 0 |
| 2,136 | M E L L O W | 2:31.04 | 0 | 0 |
| 2,137 | El_Nacho | 2:31.06 | 0 | 0 |
| 2,138 | PartTimeCanadian | 2:31.08 | 0 | 0 |
| 2,138 | Lautaro | 2:31.08 | 0 | 0 |
| 2,140 | scorpius | 2:31.14 | 0 | 0 |
| 2,141 | AviatorTen | 2:31.16 | 0 | 0 |
| 2,142 | Lupi | 2:31.21 | 0 | 0 |
| 2,143 | Nowan | 2:31.26 | 0 | 0 |
| 2,144 | Legadon | 2:31.44 | 0 | 0 |
| 2,145 | levimax49 | 2:31.49 | 0 | 0 |
| 2,146 | EBTKS Paddy | 2:31.63 | 0 | 0 |
| 2,147 | Panininini | 2:31.86 | 0 | 0 |
| 2,148 | DrPiggler | 2:31.95 | 0 | 0 |
| 2,149 | 💖 Valentino 💖 | 2:32.10 | 0 | 0 |
| 2,150 | Konasumi | 2:32.11 | 0 | 0 |
| 2,151 | Joakim230199 | 2:32.19 | 0 | 0 |
| 2,152 | NBA Shounen | 2:32.20 | 0 | 0 |
| 2,153 | XXX-Defalt-XXX | 2:32.26 | 0 | 0 |
| 2,154 | Marrod | 2:32.34 | 0 | 0 |
| 2,155 | Clown.Frankie | 2:32.46 | 0 | 0 |
| 2,156 | ASCII_Atlas | 2:32.59 | 0 | 0 |
| 2,157 | hao | 2:32.64 | 0 | 0 |
| 2,158 | Patches | 2:32.66 | 0 | 0 |
| 2,159 | lIlIlIlIlIlIlIl | 2:32.69 | 0 | 0 |
| 2,160 | Elpis Lynx | 2:33.05 | 0 | 0 |
| 2,161 | F3 Force | 2:33.46 | 0 | 0 |
| 2,162 | O Rouba Canetas ˢᶜᶜᵖ | 2:33.49 | 0 | 0 |
| 2,163 | Naprecks | 2:33.51 | 0 | 0 |
| 2,163 | BiGdIcMiKe | 2:33.51 | 0 | 0 |
| 2,165 | peez | 2:33.80 | 0 | 0 |
| 2,166 | Dove Linen | 2:33.88 | 0 | 0 |
| 2,167 | CuddleStrike | 2:33.90 | 0 | 0 |
| 2,168 | Bumblebee Gamer | 2:34.13 | 0 | 0 |
| 2,168 | Dragon4two | 2:34.13 | 0 | 0 |
| 2,170 | Hexiim | 2:34.21 | 0 | 0 |
| 2,171 | nope | 2:34.22 | 0 | 0 |
| 2,172 | Neurotic | 2:34.43 | 0 | 0 |
| 2,173 | Awmax | 2:34.52 | 0 | 0 |
| 2,174 | DJ McBirde | 2:34.62 | 0 | 0 |
| 2,175 | meadg | 2:34.72 | 0 | 0 |
| 2,176 | Nekres | 2:34.74 | 0 | 0 |
| 2,177 | Kai111 (Rusty) | 2:35.50 | 0 | 0 |
| 2,178 | Joachim Stuhl | 2:35.54 | 0 | 0 |
| 2,179 | Lilith | 2:35.61 | 0 | 0 |
| 2,180 | NK Nukes | 2:35.67 | 0 | 0 |
| 2,180 | Помпа | 2:35.67 | 0 | 0 |
| 2,182 | Gluten-Free Glue | 2:35.97 | 0 | 0 |
| 2,183 | neo_anderson | 2:36.03 | 0 | 0 |
| 2,184 | Bullets from Holland | 2:36.09 | 0 | 0 |
| 2,185 | Sateez | 2:36.11 | 0 | 0 |
| 2,185 | Dacove | 2:36.11 | 0 | 0 |
| 2,187 | Zyde | 2:36.33 | 0 | 0 |
| 2,188 | Leonnis | 2:36.43 | 0 | 0 |
| 2,189 | NotNotPancake | 2:36.56 | 0 | 0 |
| 2,190 | HeartlessBastard | 2:36.72 | 0 | 0 |
| 2,191 | Tadagha | 2:36.88 | 0 | 0 |
| 2,192 | 'Ave a puff lad | 2:36.99 | 0 | 0 |
| 2,193 | Not Picha Corter 777 (VAC :D) | 2:37.23 | 0 | 0 |
| 2,194 | frode | 2:37.27 | 0 | 0 |
| 2,195 | Ball232 | 2:37.33 | 0 | 0 |
| 2,196 | Jazzedthrottle | 2:37.52 | 0 | 0 |
| 2,197 | Wehavecookies53 | 2:37.55 | 0 | 0 |
| 2,198 | Ices Blaze | 2:37.61 | 0 | 0 |
| 2,199 | TurdleShell | 2:37.89 | 0 | 0 |
| 2,200 | jedinamenlos | 2:37.95 | 0 | 0 |
| 2,201 | Davoz | 2:37.96 | 0 | 0 |
| 2,202 | .png | 2:37.98 | 0 | 0 |
| 2,203 | ☢ OGJack1337 | 2:37.99 | 0 | 0 |
| 2,204 | Impaired Bear | 2:38.17 | 0 | 0 |
| 2,205 | TruckSama | 2:38.22 | 0 | 0 |
| 2,206 | Ay Scruh Jum Lord | 2:38.33 | 0 | 0 |
| 2,207 | jtjelani | 2:38.42 | 0 | 0 |
| 2,208 | Max | 2:38.87 | 0 | 0 |
| 2,209 | kazuyacat | 2:38.93 | 0 | 0 |
| 2,210 | Buttlet | 2:38.96 | 0 | 0 |
| 2,211 | rip in pieces | 2:38.97 | 0 | 0 |
| 2,212 | TheCmtgod | 2:39.01 | 0 | 0 |
| 2,213 | Icetigerv | 2:39.07 | 0 | 0 |
| 2,214 | ~Zarkith | 2:39.08 | 0 | 0 |
| 2,215 | AngelofAnger | 2:39.20 | 0 | 0 |
| 2,216 | 大喵喵喵 | 2:39.25 | 0 | 0 |
| 2,217 | |D.H.E| Azzurol | 2:39.40 | 0 | 0 |
| 2,218 | Holysaint | 2:39.55 | 0 | 0 |
| 2,219 | raviolifun | 2:39.60 | 0 | 0 |
| 2,220 | Nzo lol | 2:39.63 | 0 | 0 |
| 2,221 | ✿Hashbrownᵢₑ | 2:39.69 | 0 | 0 |
| 2,221 | Axle Dawn Dusk | 2:39.69 | 0 | 0 |
| 2,223 | BnN | 2:39.72 | 0 | 0 |
| 2,224 | Grav | 2:39.77 | 0 | 0 |
| 2,224 | Daniel Penha | 2:39.77 | 0 | 0 |
| 2,226 | BlueMage10 | 2:39.83 | 0 | 0 |
| 2,227 | Thoughtless | 2:40.13 | 0 | 0 |
| 2,228 | PopTeenSensationBritneyBreitney | 2:40.15 | 0 | 0 |
| 2,229 | Melfice | 2:40.27 | 0 | 0 |
| 2,230 | Jam3sthorwolf | 2:40.43 | 0 | 0 |
| 2,231 | Janus | 2:40.54 | 0 | 0 |
| 2,232 | copilul calebului | 2:40.58 | 0 | 0 |
| 2,233 | Zat-1-fury | 2:40.71 | 0 | 0 |
| 2,233 | GD Taylor | 2:40.71 | 0 | 0 |
| 2,235 | TheCarniv0rE | 2:40.76 | 0 | 0 |
| 2,236 | bkdasher | 2:40.99 | 0 | 0 |
| 2,237 | Seal Team Fix | 2:41.00 | 0 | 0 |
| 2,238 | PinkSlippers_ | 2:41.01 | 0 | 0 |
| 2,239 | [deleted] | 2:41.10 | 0 | 0 |
| 2,239 | Meconis | 2:41.10 | 0 | 0 |
| 2,241 | shrümii | 2:41.15 | 0 | 0 |
| 2,242 | MamaClockie | 2:41.16 | 0 | 0 |
| 2,243 | puple | 2:41.17 | 0 | 0 |
| 2,244 | Mr.FaceLickles | 2:41.22 | 0 | 0 |
| 2,245 | Sniwii | 2:41.28 | 0 | 0 |
| 2,246 | YasMaster141 | 2:41.38 | 0 | 0 |
| 2,247 | WolfFox1996 | 2:41.41 | 0 | 0 |
| 2,248 | Bae of Pigs | 2:41.54 | 0 | 0 |
| 2,249 | Caducifolio | 2:41.67 | 0 | 0 |
| 2,250 | Luk_333 | 2:41.72 | 0 | 0 |
| 2,251 | SaxyBoi | 2:41.94 | 0 | 0 |
| 2,252 | marf | 2:41.97 | 0 | 0 |
| 2,253 | Oniryu | 2:42.10 | 0 | 0 |
| 2,254 | Tas Kots | 2:42.33 | 0 | 0 |
| 2,255 | AlexMVW10 | 2:42.34 | 0 | 0 |
| 2,256 | snarewaves | 2:42.55 | 0 | 0 |
| 2,257 | Lele | 2:42.81 | 0 | 0 |
| 2,258 | Uschaschmichr | 2:42.86 | 0 | 0 |
| 2,259 | xbandi38 | 2:42.99 | 0 | 0 |
| 2,260 | kansaskax | 2:43.02 | 0 | 0 |
| 2,261 | Da_KinGanondorf | 2:43.20 | 0 | 0 |
| 2,262 | Geist | 2:43.43 | 0 | 0 |
| 2,263 | din mor | 2:43.44 | 0 | 0 |
| 2,264 | Tokyo. | 2:43.46 | 0 | 0 |
| 2,265 | feliae | 2:43.54 | 0 | 0 |
| 2,266 | GodzillaVr | 2:43.59 | 0 | 0 |
| 2,266 | Starsyde77 | 2:43.59 | 0 | 0 |
| 2,268 | ren | 2:43.61 | 0 | 0 |
| 2,269 | CreamyK | 2:43.63 | 0 | 0 |
| 2,270 | RisingHERO19 | 2:43.70 | 0 | 0 |
| 2,271 | Witty | 2:43.86 | 0 | 0 |
| 2,272 | Kodiak | 2:43.87 | 0 | 0 |
| 2,273 | Drommer | 2:44.00 | 0 | 0 |
| 2,274 | CapleGuion | 2:44.05 | 0 | 0 |
| 2,275 | GaldapJunior | 2:44.54 | 0 | 0 |
| 2,276 | Jubejubes | 2:44.84 | 0 | 0 |
| 2,277 | lift ur pooltoy tail for me | 2:45.24 | 0 | 0 |
| 2,278 | monolith | 2:45.26 | 0 | 0 |
| 2,279 | PuroWag | 2:45.67 | 0 | 0 |
| 2,280 | マリア★ | 2:45.82 | 0 | 0 |
| 2,281 | ToonFan2106 | 2:45.88 | 0 | 0 |
| 2,282 | spooky ratty | 2:45.92 | 0 | 0 |
| 2,283 | Unreal. | 2:45.95 | 0 | 0 |
| 2,284 | NostalgicRage | 2:45.97 | 0 | 0 |
| 2,285 | lugs | 2:45.98 | 0 | 0 |
| 2,286 | Líong Phük | 2:45.99 | 0 | 0 |
| 2,287 | PhilipTheCurious | 2:46.19 | 0 | 0 |
| 2,288 | RadioActiveToy | 2:46.28 | 0 | 0 |
| 2,289 | Niko | 2:46.47 | 0 | 0 |
| 2,290 | Sr. Galán | 2:46.72 | 0 | 0 |
| 2,291 | ExplosiveGamer21 | 2:47.13 | 0 | 0 |
| 2,292 | emirhansaral118 | 2:47.39 | 0 | 0 |
| 2,293 | P0LL0 | 2:47.44 | 0 | 0 |
| 2,294 | Chameh | 2:47.57 | 0 | 0 |
| 2,295 | Split Second | 2:47.63 | 0 | 0 |
| 2,296 | xy01 | 2:47.84 | 0 | 0 |
| 2,297 | DrunkUchiha | 2:48.03 | 0 | 0 |
| 2,298 | LelouchXV3 | 2:48.06 | 0 | 0 |
| 2,299 | simz | 2:48.11 | 0 | 0 |
| 2,300 | GothChild | 2:48.64 | 0 | 0 |
| 2,301 | raiidem | 2:48.87 | 0 | 0 |
| 2,302 | Mocha | 2:49.11 | 0 | 0 |
| 2,303 | Lyalli | 2:49.15 | 0 | 0 |
| 2,304 | Dragonpntm | 2:49.17 | 0 | 0 |
| 2,305 | MoondustIsPoison | 2:49.32 | 0 | 0 |
| 2,306 | echo | 2:49.63 | 0 | 0 |
| 2,307 | NoobPlayerBR | 2:49.96 | 0 | 0 |
| 2,308 | SERAVEE | 2:50.18 | 0 | 0 |
| 2,309 | solae | 2:50.60 | 0 | 0 |
| 2,310 | (erk) WHATTTTT | 2:50.66 | 0 | 0 |
| 2,310 | Petroleum Enthusiast | 2:50.66 | 0 | 0 |
| 2,312 | Cosmic0de | 2:51.04 | 0 | 0 |
| 2,313 | PinoSaurio | 2:51.14 | 0 | 0 |
| 2,314 | TheSeaOfAsh | 2:51.23 | 0 | 0 |
| 2,315 | byanymeansnecessary | 2:51.80 | 0 | 0 |
| 2,316 | Schleck | 2:51.97 | 0 | 0 |
| 2,317 | Jester Thomas | 2:52.09 | 0 | 0 |
| 2,318 | Neph | 2:52.17 | 0 | 0 |
| 2,319 | PastramiOrigami | 2:52.18 | 0 | 0 |
| 2,320 | Looping | 2:52.26 | 0 | 0 |
| 2,321 | Pinguin | 2:52.30 | 0 | 0 |
| 2,322 | Barron | 2:52.65 | 0 | 0 |
| 2,323 | Swurgern | 2:52.68 | 0 | 0 |
| 2,324 | Aero | 2:52.95 | 0 | 0 |
| 2,325 | GetBusyLivin | 2:52.99 | 0 | 0 |
| 2,326 | Mikio | 2:54.13 | 0 | 0 |
| 2,327 | Viper | 2:54.27 | 0 | 0 |
| 2,328 | Quarterware | 2:54.71 | 0 | 0 |
| 2,329 | Bara_Coded[FR] | 2:54.76 | 0 | 0 |
| 2,330 | GeorgeDaDragon | 2:54.89 | 0 | 0 |
| 2,330 | Roy_ | 2:54.89 | 0 | 0 |
| 2,330 | eX | 2:54.89 | 0 | 0 |
| 2,333 | Злой Noob | 2:55.70 | 0 | 0 |
| 2,334 | SauronGamer | 2:56.07 | 0 | 0 |
| 2,335 | Blato | 2:56.18 | 0 | 0 |
| 2,336 | Sin | 2:56.35 | 0 | 0 |
| 2,337 | lionel | 2:56.53 | 0 | 0 |
| 2,338 | 2ddixon | 2:56.57 | 0 | 0 |
| 2,339 | Smash | 2:57.16 | 0 | 0 |
| 2,340 | [F-B] HOTWHEELS25372 | 2:57.22 | 0 | 0 |
| 2,341 | Creepersrock24Gaming | 2:58.74 | 0 | 0 |
| 2,342 | Ammo37 | 2:58.82 | 0 | 0 |
| 2,343 | li battery | 2:58.94 | 0 | 0 |
| 2,344 | ezjenken | 2:59.35 | 0 | 0 |
| 2,345 | King G | 2:59.37 | 0 | 0 |
| 2,346 | strange fox | 2:59.50 | 0 | 0 |
| 2,347 | DJ | 2:59.65 | 0 | 0 |
| 2,348 | Zaz Bellum | 2:59.90 | 0 | 0 |
| 2,349 | DrownedToSleep | 3:00.76 | 0 | 0 |
| 2,350 | Ocean | 3:01.73 | 0 | 0 |
| 2,351 | CYBER | 3:01.85 | 0 | 0 |
| 2,352 | Rolfforever | 3:02.08 | 0 | 0 |
| 2,353 | Pigeon | 3:02.52 | 0 | 0 |
| 2,354 | Fhaer | 3:02.69 | 0 | 0 |
| 2,355 | τα_έντερα | 3:03.11 | 0 | 0 |
| 2,356 | BYTC | 3:03.13 | 0 | 0 |
| 2,357 | ImperatorPavel | 3:03.28 | 0 | 0 |
| 2,358 | rocmanx654 | 3:03.35 | 0 | 0 |
| 2,359 | supa scoopa | 3:03.43 | 0 | 0 |
| 2,360 | [N3X4N] | 3:03.60 | 0 | 0 |
| 2,361 | Phoenix0891 | 3:04.31 | 0 | 0 |
| 2,362 | hehl | 3:04.66 | 0 | 0 |
| 2,363 | isaacpotato | 3:04.71 | 0 | 0 |
| 2,364 | doodmang | 3:04.88 | 0 | 0 |
| 2,365 | Koimp | 3:04.92 | 0 | 0 |
| 2,366 | Morningstar_Initiative | 3:05.53 | 0 | 0 |
| 2,367 | GingerMoose | 3:05.54 | 0 | 0 |
| 2,368 | COS | 3:05.60 | 0 | 0 |
| 2,369 | ASHES | 3:05.82 | 0 | 0 |
| 2,370 | Graysongdl | 3:06.09 | 0 | 0 |
| 2,371 | joltz | 3:06.81 | 0 | 0 |
| 2,372 | Robotnik00 | 3:06.91 | 0 | 0 |
| 2,373 | Onuris | 3:07.03 | 0 | 0 |
| 2,374 | glonik | 3:07.11 | 0 | 0 |
| 2,375 | Aldebaran | 3:07.20 | 0 | 0 |
| 2,376 | halconfenix | 3:07.24 | 0 | 0 |
| 2,377 | rezzonating | 3:07.78 | 0 | 0 |
| 2,378 | 5-Star General Ender | 3:08.00 | 0 | 0 |
| 2,379 | zZCENTURIONZz | 3:08.03 | 0 | 0 |
| 2,380 | brovails | 3:08.24 | 0 | 0 |
| 2,380 | Zero_Antlax | 3:08.24 | 0 | 0 |
| 2,382 | PayPalMeFuzzby | 3:08.42 | 0 | 0 |
| 2,383 | 🍊Blood-Orange | 3:08.88 | 0 | 0 |
| 2,384 | PELOPINCHO | 3:09.84 | 0 | 0 |
| 2,385 | _olivia | 3:10.08 | 0 | 0 |
| 2,386 | Random User 91 | 3:10.58 | 0 | 0 |
| 2,387 | takeabathhippie | 3:10.59 | 0 | 0 |
| 2,388 | 晓鹿 | 3:10.78 | 0 | 0 |
| 2,389 | TheresNoTree | 3:11.05 | 0 | 0 |
| 2,390 | EastonCobra315 | 3:11.58 | 0 | 0 |
| 2,391 | 聖邁克爾 | 3:11.86 | 0 | 0 |
| 2,392 | dYZER | 3:12.26 | 0 | 0 |
| 2,393 | Kenjamin | 3:14.36 | 0 | 0 |
| 2,394 | ❤Little Kung ♛ (no mic) | 3:14.52 | 0 | 0 |
| 2,395 | elijah_huh | 3:14.54 | 0 | 0 |
| 2,396 | Dedos del pez | 3:15.70 | 0 | 0 |
| 2,397 | Revsei | 3:16.46 | 0 | 0 |
| 2,398 | Clympcyte | 3:16.89 | 0 | 0 |
| 2,399 | Jamal786🪐 | 3:17.77 | 0 | 0 |
| 2,400 | Geertje | 3:17.79 | 0 | 0 |
| 2,401 | Агент Карлсон | 3:18.62 | 0 | 0 |
| 2,402 | Woodensponge | 3:18.67 | 0 | 0 |
| 2,403 | The Great Emu War | 3:18.80 | 0 | 0 |
| 2,404 | Mrs_Moonz | 3:19.31 | 0 | 0 |
| 2,405 | keygenmayor | 3:19.88 | 0 | 0 |
| 2,406 | Kathumandu | 3:20.79 | 0 | 0 |
| 2,407 | Daargban | 3:21.13 | 0 | 0 |
| 2,408 | 贫穷的跳蚤市场摊贩 | 3:21.85 | 0 | 0 |
| 2,409 | Elementrix[IMOV] | 3:21.99 | 0 | 0 |
| 2,410 | iCUnicorns | 3:22.54 | 0 | 0 |
| 2,411 | Yakaze | 3:22.76 | 0 | 0 |
| 2,412 | MR.Tyde | 3:24.14 | 0 | 0 |
| 2,413 | ふたなり | 3:25.11 | 0 | 0 |
| 2,414 | John Thicc | 3:25.20 | 0 | 0 |
| 2,415 | UnFefeSauvage | 3:25.32 | 0 | 0 |
| 2,416 | The Sea Blurban | 3:25.45 | 0 | 0 |
| 2,417 | Juni | 3:25.97 | 0 | 0 |
| 2,418 | Jetfire | 3:27.23 | 0 | 0 |
| 2,419 | Silvertail | 3:29.24 | 0 | 0 |
| 2,420 | Hadrielll | 3:29.34 | 0 | 0 |
| 2,421 | Pebble | 3:30.27 | 0 | 0 |
| 2,422 | Kokobeng | 3:30.31 | 0 | 0 |
| 2,423 | Hawke | 3:30.78 | 0 | 0 |
| 2,424 | Rose_Heart13 | 3:31.10 | 0 | 0 |
| 2,425 | spb1234 | 3:31.54 | 0 | 0 |
| 2,426 | BruhMoment | 3:31.56 | 0 | 0 |
| 2,427 | XEN | 3:32.77 | 0 | 0 |
| 2,428 | dude | 3:33.33 | 0 | 0 |
| 2,429 | Twiloore | 3:33.36 | 0 | 0 |
| 2,430 | Cerberus DCXVI | 3:34.53 | 0 | 0 |
| 2,431 | DashStark76 | 3:35.27 | 0 | 0 |
| 2,432 | BT160505 | 3:35.49 | 0 | 0 |
| 2,433 | Knightly-Night | 3:35.82 | 0 | 0 |
| 2,434 | Altrafry | 3:36.14 | 0 | 0 |
| 2,435 | PlaymakerTM | 3:37.50 | 0 | 0 |
| 2,436 | Nano Void | 3:38.74 | 0 | 0 |
| 2,437 | ibimsniki | 3:39.47 | 0 | 0 |
| 2,438 | RocketZeLuna | 3:39.60 | 0 | 0 |
| 2,439 | Terra | 3:40.90 | 0 | 0 |
| 2,440 | Starhorder | 3:42.14 | 0 | 0 |
| 2,441 | Skybox | 3:42.50 | 0 | 0 |
| 2,442 | SkillfullyBad | 3:44.17 | 0 | 0 |
| 2,443 | Wasasin | 3:44.42 | 0 | 0 |
| 2,444 | tamsar1111 | 3:45.36 | 0 | 0 |
| 2,445 | SpaceWhisky | 3:45.73 | 0 | 0 |
| 2,446 | _FallenTurtle_ | 3:45.91 | 0 | 0 |
| 2,447 | Loune Fire | 3:45.93 | 0 | 0 |
| 2,448 | TeferiChiquito | 3:46.05 | 0 | 0 |
| 2,449 | Red Sasori | 3:46.64 | 0 | 0 |
| 2,450 | King | 3:47.19 | 0 | 0 |
| 2,451 | Gexgekko | 3:47.28 | 0 | 0 |
| 2,452 | Alaskalúpína | 3:48.32 | 0 | 0 |
| 2,453 | EddoXD | 3:49.09 | 0 | 0 |
| 2,454 | J1F2HD | 3:50.42 | 0 | 0 |
| 2,455 | lol92sisi | 3:51.52 | 0 | 0 |
| 2,456 | ado line | 3:52.41 | 0 | 0 |
| 2,457 | tux | 3:52.81 | 0 | 0 |
| 2,458 | Damok | 3:53.60 | 0 | 0 |
| 2,459 | Despo_357 | 3:54.38 | 0 | 0 |
| 2,460 | Hijacker02 | 3:54.50 | 0 | 0 |
| 2,461 | wayward-wolf | 3:54.60 | 0 | 0 |
| 2,462 | Tooki | 3:55.31 | 0 | 0 |
| 2,463 | ketikidistv | 3:55.57 | 0 | 0 |
| 2,464 | ConX | 3:55.76 | 0 | 0 |
| 2,465 | Paulmia0916 | 3:55.94 | 0 | 0 |
| 2,466 | Ballsniffiscent | 4:01.89 | 0 | 0 |
| 2,467 | Puraxi | 4:04.18 | 0 | 0 |
| 2,468 | Trabis | 4:07.17 | 0 | 0 |
| 2,469 | MikeTheDigi | 4:07.98 | 0 | 0 |
| 2,470 | tiO_Oit | 4:11.98 | 0 | 0 |
| 2,471 | HockeyHero7 | 4:13.22 | 0 | 0 |
| 2,472 | Sixprey | 4:16.98 | 0 | 0 |
| 2,473 | lucebreaks | 4:17.52 | 0 | 0 |
| 2,474 | Fearture | 4:18.78 | 0 | 0 |
| 2,475 | yuyurei | 4:21.12 | 0 | 0 |
| 2,476 | Darman | 4:25.26 | 0 | 0 |
| 2,477 | King | 4:27.88 | 0 | 0 |
| 2,478 | veam! | 4:31.75 | 0 | 0 |
| 2,479 | Vagrant | 4:31.85 | 0 | 0 |
| 2,480 | RIKRDO KR | 4:32.15 | 0 | 0 |
| 2,481 | BLACKRFLAME | 4:32.65 | 0 | 0 |
| 2,482 | Pan | 4:34.77 | 0 | 0 |
| 2,483 | AlexDerStolzeFuchs | 4:36.62 | 0 | 0 |
| 2,484 | Drillos | 4:36.99 | 0 | 0 |
| 2,485 | Fire Chicken | 4:41.73 | 0 | 0 |
| 2,486 | Eveldevel | 4:58.23 | 0 | 0 |
| 2,487 | Livio | 5:00.65 | 0 | 0 |
| 2,488 | shadowshark26 | 5:05.89 | 0 | 0 |
| 2,489 | JynNorx | 5:06.94 | 0 | 0 |
| 2,490 | Trailsmix | 5:08.84 | 0 | 0 |
| 2,491 | CU PRETO GAMES | 5:10.14 | 0 | 0 |
| 2,492 | Razand | 5:13.09 | 0 | 0 |
| 2,493 | lucas88 | 5:22.62 | 0 | 0 |
| 2,494 | NULL; | 5:22.92 | 0 | 0 |
| 2,495 | FRΛCTURΞD SOUL | 5:30.12 | 0 | 0 |
| 2,496 | TehJoker14780 | 5:34.63 | 0 | 0 |
| 2,497 | TOOCOOLHENPOO | 5:37.93 | 0 | 0 |
| 2,498 | Depression | 5:42.83 | 0 | 0 |
| 2,499 | Eddie Smhall | 5:43.43 | 0 | 0 |
| 2,500 | XenTyphoon | 5:53.55 | 0 | 0 |
| 2,501 | Nemesis | 6:00.70 | 0 | 0 |
| 2,502 | Vinter | 6:34.87 | 0 | 0 |
| 2,503 | GlonkBonk | 6:49.57 | 0 | 0 |
| 2,504 | Sambravo501st | 6:56.11 | 0 | 0 |
| 2,505 | Gear | 7:49.08 | 0 | 0 |
HoldGrip